<?xml version='1.0' encoding='UTF-8'?><gpx version="1.1" creator="JPX - https://github.com/jenetics/jpx" xmlns="http://www.topografix.com/GPX/1/1"><trk><trkseg><trkpt lat="43.3112220806774" lon="10.523210134962858"><ele>15.0</ele><time>2026-04-20T16:16:10.988Z</time></trkpt><trkpt lat="43.311156463264865" lon="10.523164143121345"><ele>15.0</ele><time>2026-04-20T16:16:16.992Z</time></trkpt><trkpt lat="43.31112375850257" lon="10.52308725383232"><ele>15.0</ele><time>2026-04-20T16:16:20.994Z</time></trkpt><trkpt lat="43.31109723283001" lon="10.522996727967243"><ele>15.0</ele><time>2026-04-20T16:16:25.996Z</time></trkpt><trkpt lat="43.3110654686304" lon="10.52291530290953"><ele>15.0</ele><time>2026-04-20T16:16:28.997Z</time></trkpt><trkpt lat="43.31103553397771" lon="10.522825966060246"><ele>15.0</ele><time>2026-04-20T16:16:35.998Z</time></trkpt><trkpt lat="43.311007021451175" lon="10.52272840428393"><ele>15.0</ele><time>2026-04-20T16:16:39.999Z</time></trkpt><trkpt lat="43.31097936223297" lon="10.522645197428597"><ele>15.142857142857142</ele><time>2026-04-20T16:16:45Z</time></trkpt><trkpt lat="43.310952668568774" lon="10.522537433881238"><ele>15.285714285714285</ele><time>2026-04-20T16:16:50Z</time></trkpt><trkpt lat="43.31093282609546" lon="10.522450780179797"><ele>15.428571428571427</ele><time>2026-04-20T16:16:53Z</time></trkpt><trkpt lat="43.310919700175866" lon="10.522365105531348"><ele>15.571428571428571</ele><time>2026-04-20T16:16:56Z</time></trkpt><trkpt lat="43.31089398541932" lon="10.522268719632509"><ele>15.714285714285712</ele><time>2026-04-20T16:17:00.001Z</time></trkpt><trkpt lat="43.31086147824777" lon="10.522179049173262"><ele>15.857142857142856</ele><time>2026-04-20T16:17:04.001Z</time></trkpt><trkpt lat="43.31081234551577" lon="10.522121092167252"><ele>16.0</ele><time>2026-04-20T16:17:08.001Z</time></trkpt><trkpt lat="43.310741580878236" lon="10.522113189271492"><ele>15.999999999999998</ele><time>2026-04-20T16:17:13.001Z</time></trkpt><trkpt lat="43.310716079396464" lon="10.522201896010547"><ele>16.0</ele><time>2026-04-20T16:17:19.001Z</time></trkpt><trkpt lat="43.31065389228" lon="10.522236546488944"><ele>16.0</ele><time>2026-04-20T16:17:26.001Z</time></trkpt><trkpt lat="43.31057877864652" lon="10.522276972843686"><ele>16.0</ele><time>2026-04-20T16:17:30.001Z</time></trkpt><trkpt lat="43.310515126657364" lon="10.52227957697758"><ele>15.999999999999998</ele><time>2026-04-20T16:17:34.001Z</time></trkpt><trkpt lat="43.31042790331186" lon="10.522277713210057"><ele>16.0</ele><time>2026-04-20T16:17:38.001Z</time></trkpt><trkpt lat="43.31033811854677" lon="10.522252917722906"><ele>15.571428571428571</ele><time>2026-04-20T16:17:41.001Z</time></trkpt><trkpt lat="43.310307322264805" lon="10.522154325983813"><ele>15.142857142857142</ele><time>2026-04-20T16:17:45.001Z</time></trkpt><trkpt lat="43.310260704207714" lon="10.52207233022795"><ele>14.714285714285714</ele><time>2026-04-20T16:17:49.001Z</time></trkpt><trkpt lat="43.31023197539706" lon="10.521983657625002"><ele>14.285714285714285</ele><time>2026-04-20T16:17:53.001Z</time></trkpt><trkpt lat="43.31020599594942" lon="10.521893017617032"><ele>13.857142857142858</ele><time>2026-04-20T16:17:58.001Z</time></trkpt><trkpt lat="43.310180231604384" lon="10.521811551817684"><ele>13.428571428571427</ele><time>2026-04-20T16:18:01.001Z</time></trkpt><trkpt lat="43.310149422400464" lon="10.52170904692906"><ele>13.0</ele><time>2026-04-20T16:18:05.002Z</time></trkpt><trkpt lat="43.3101233780933" lon="10.521616972580029"><ele>13.0</ele><time>2026-04-20T16:18:09.001Z</time></trkpt><trkpt lat="43.31008821600291" lon="10.521536341799328"><ele>13.0</ele><time>2026-04-20T16:18:13.001Z</time></trkpt><trkpt lat="43.31005065395247" lon="10.521463923252385"><ele>13.0</ele><time>2026-04-20T16:18:17.001Z</time></trkpt><trkpt lat="43.31000283888883" lon="10.521401466555616"><ele>13.0</ele><time>2026-04-20T16:18:21.001Z</time></trkpt><trkpt lat="43.31000097178109" lon="10.521296980654459"><ele>13.0</ele><time>2026-04-20T16:18:24.001Z</time></trkpt><trkpt lat="43.309968577683186" lon="10.52120772629484"><ele>13.0</ele><time>2026-04-20T16:18:28.001Z</time></trkpt><trkpt lat="43.309938774222694" lon="10.521121239817182"><ele>13.0</ele><time>2026-04-20T16:18:33.001Z</time></trkpt><trkpt lat="43.309909541649226" lon="10.521041131146026"><ele>13.0</ele><time>2026-04-20T16:18:36.001Z</time></trkpt><trkpt lat="43.3098758814897" lon="10.520955673826563"><ele>13.0</ele><time>2026-04-20T16:18:39Z</time></trkpt><trkpt lat="43.30986937499015" lon="10.520846029572342"><ele>13.0</ele><time>2026-04-20T16:18:42Z</time></trkpt><trkpt lat="43.30985809576053" lon="10.520758527136394"><ele>13.0</ele><time>2026-04-20T16:18:45Z</time></trkpt><trkpt lat="43.30984117005363" lon="10.520658719154246"><ele>13.0</ele><time>2026-04-20T16:18:49Z</time></trkpt><trkpt lat="43.309830920072066" lon="10.520563676999261"><ele>13.0</ele><time>2026-04-20T16:18:53Z</time></trkpt><trkpt lat="43.30979881097459" lon="10.520482148543405"><ele>13.0</ele><time>2026-04-20T16:18:57Z</time></trkpt><trkpt lat="43.30977209621339" lon="10.520391681181085"><ele>13.142857142857142</ele><time>2026-04-20T16:19:01Z</time></trkpt><trkpt lat="43.30975889112594" lon="10.520300702753502"><ele>13.285714285714286</ele><time>2026-04-20T16:19:05Z</time></trkpt><trkpt lat="43.3097237317849" lon="10.52020401879536"><ele>13.428571428571429</ele><time>2026-04-20T16:19:10Z</time></trkpt><trkpt lat="43.30970633313652" lon="10.520116900838811"><ele>13.571428571428571</ele><time>2026-04-20T16:19:14Z</time></trkpt><trkpt lat="43.30967970261417" lon="10.520022394459097"><ele>13.714285714285715</ele><time>2026-04-20T16:19:19Z</time></trkpt><trkpt lat="43.30966747829775" lon="10.519925995014534"><ele>13.857142857142858</ele><time>2026-04-20T16:19:24Z</time></trkpt><trkpt lat="43.30963994359842" lon="10.519834395256106"><ele>14.0</ele><time>2026-04-20T16:19:28Z</time></trkpt><trkpt lat="43.309578744669146" lon="10.519778868655147"><ele>13.666666666666668</ele><time>2026-04-20T16:19:34Z</time></trkpt><trkpt lat="43.309536546055845" lon="10.519678301769003"><ele>13.333333333333334</ele><time>2026-04-20T16:19:41Z</time></trkpt><trkpt lat="43.30952372731685" lon="10.519572608472062"><ele>13.0</ele><time>2026-04-20T16:19:45Z</time></trkpt><trkpt lat="43.30948762817773" lon="10.51946896726456"><ele>12.666666666666668</ele><time>2026-04-20T16:19:50Z</time></trkpt><trkpt lat="43.309453989053424" lon="10.519377109577386"><ele>12.333333333333334</ele><time>2026-04-20T16:19:55Z</time></trkpt><trkpt lat="43.309447653902886" lon="10.519281598285989"><ele>12.0</ele><time>2026-04-20T16:19:59Z</time></trkpt><trkpt lat="43.30941256300907" lon="10.51919862131008"><ele>11.999999999999998</ele><time>2026-04-20T16:20:03Z</time></trkpt><trkpt lat="43.30938875846079" lon="10.51911004828753"><ele>12.0</ele><time>2026-04-20T16:20:07Z</time></trkpt><trkpt lat="43.30935197252356" lon="10.519035923418098"><ele>12.0</ele><time>2026-04-20T16:20:11.001Z</time></trkpt><trkpt lat="43.30931100129361" lon="10.518960350158086"><ele>12.0</ele><time>2026-04-20T16:20:15.001Z</time></trkpt><trkpt lat="43.309260934912615" lon="10.518870603550045"><ele>12.0</ele><time>2026-04-20T16:20:20Z</time></trkpt><trkpt lat="43.3092234249356" lon="10.518800988150593"><ele>11.999999999999998</ele><time>2026-04-20T16:20:24Z</time></trkpt><trkpt lat="43.309218015658715" lon="10.518711281411507"><ele>12.0</ele><time>2026-04-20T16:20:28Z</time></trkpt><trkpt lat="43.30922674949165" lon="10.518617558877178"><ele>12.0</ele><time>2026-04-20T16:20:34Z</time></trkpt><trkpt lat="43.3092294717543" lon="10.518524225826267"><ele>12.0</ele><time>2026-04-20T16:20:40Z</time></trkpt><trkpt lat="43.30918455316545" lon="10.518442997730741"><ele>12.0</ele><time>2026-04-20T16:20:45Z</time></trkpt><trkpt lat="43.30915533923996" lon="10.518325356447136"><ele>12.0</ele><time>2026-04-20T16:20:49Z</time></trkpt><trkpt lat="43.30912968539795" lon="10.518220589570944"><ele>12.0</ele><time>2026-04-20T16:20:53Z</time></trkpt><trkpt lat="43.309132669711694" lon="10.51812024297886"><ele>12.0</ele><time>2026-04-20T16:20:59Z</time></trkpt><trkpt lat="43.309170013815944" lon="10.518034466998746"><ele>11.999999999999998</ele><time>2026-04-20T16:21:04Z</time></trkpt><trkpt lat="43.30920294789772" lon="10.51793663216306"><ele>12.0</ele><time>2026-04-20T16:21:09Z</time></trkpt><trkpt lat="43.30922508835906" lon="10.517855350602048"><ele>12.0</ele><time>2026-04-20T16:21:13Z</time></trkpt><trkpt lat="43.30922682837758" lon="10.517746161949782"><ele>12.0</ele><time>2026-04-20T16:21:20Z</time></trkpt><trkpt lat="43.309207450090945" lon="10.517645191166217"><ele>12.0</ele><time>2026-04-20T16:21:24Z</time></trkpt><trkpt lat="43.30918004269004" lon="10.517563103110941"><ele>11.999999999999998</ele><time>2026-04-20T16:21:28Z</time></trkpt><trkpt lat="43.30915069211565" lon="10.517481825013677"><ele>12.0</ele><time>2026-04-20T16:21:32Z</time></trkpt><trkpt lat="43.30913921586664" lon="10.51739485725473"><ele>11.999999999999998</ele><time>2026-04-20T16:21:37Z</time></trkpt><trkpt lat="43.3091361694797" lon="10.517293483490946"><ele>12.0</ele><time>2026-04-20T16:21:43Z</time></trkpt><trkpt lat="43.30907481042666" lon="10.517218799083048"><ele>12.0</ele><time>2026-04-20T16:21:47Z</time></trkpt><trkpt lat="43.30902985993814" lon="10.51715587235443"><ele>12.0</ele><time>2026-04-20T16:21:53Z</time></trkpt><trkpt lat="43.309002688068844" lon="10.5170652773287"><ele>12.0</ele><time>2026-04-20T16:21:58Z</time></trkpt><trkpt lat="43.30897378523738" lon="10.516973662950369"><ele>11.999999999999998</ele><time>2026-04-20T16:22:02Z</time></trkpt><trkpt lat="43.30895485859194" lon="10.516890563992963"><ele>12.0</ele><time>2026-04-20T16:22:08Z</time></trkpt><trkpt lat="43.30894206816826" lon="10.516798953288395"><ele>11.999999999999998</ele><time>2026-04-20T16:22:11Z</time></trkpt><trkpt lat="43.30892975580232" lon="10.516708503182365"><ele>12.0</ele><time>2026-04-20T16:22:14Z</time></trkpt><trkpt lat="43.30891608334331" lon="10.516619610244714"><ele>12.0</ele><time>2026-04-20T16:22:17Z</time></trkpt><trkpt lat="43.308900249561276" lon="10.51650914177029"><ele>12.0</ele><time>2026-04-20T16:22:21Z</time></trkpt><trkpt lat="43.30887614050191" lon="10.516412323773272"><ele>12.0</ele><time>2026-04-20T16:22:26Z</time></trkpt><trkpt lat="43.308845976907186" lon="10.516314783355988"><ele>11.999999999999998</ele><time>2026-04-20T16:22:33Z</time></trkpt><trkpt lat="43.308860970474385" lon="10.516226894024932"><ele>12.0</ele><time>2026-04-20T16:22:36Z</time></trkpt><trkpt lat="43.308901803426075" lon="10.516150727186732"><ele>11.571428571428571</ele><time>2026-04-20T16:22:41Z</time></trkpt><trkpt lat="43.30895355324713" lon="10.516089912651111"><ele>11.142857142857142</ele><time>2026-04-20T16:22:45Z</time></trkpt><trkpt lat="43.30903343542118" lon="10.516097375358164"><ele>10.714285714285715</ele><time>2026-04-20T16:22:49Z</time></trkpt><trkpt lat="43.30908076362632" lon="10.516030938966113"><ele>10.285714285714285</ele><time>2026-04-20T16:22:55Z</time></trkpt><trkpt lat="43.309104467519965" lon="10.515936478935554"><ele>9.857142857142858</ele><time>2026-04-20T16:23:00Z</time></trkpt><trkpt lat="43.30914954582082" lon="10.515865030547749"><ele>9.428571428571429</ele><time>2026-04-20T16:23:04Z</time></trkpt><trkpt lat="43.309216806660906" lon="10.515918727369748"><ele>9.0</ele><time>2026-04-20T16:23:09Z</time></trkpt><trkpt lat="43.309286474559684" lon="10.515893793471061"><ele>9.000000000000002</ele><time>2026-04-20T16:23:14Z</time></trkpt><trkpt lat="43.30933826252485" lon="10.515842121803884"><ele>9.0</ele><time>2026-04-20T16:23:18Z</time></trkpt><trkpt lat="43.30940269471672" lon="10.515781579873561"><ele>9.0</ele><time>2026-04-20T16:23:26Z</time></trkpt><trkpt lat="43.30944755976452" lon="10.515706617419651"><ele>9.0</ele><time>2026-04-20T16:23:30Z</time></trkpt><trkpt lat="43.3094611188638" lon="10.515618366925054"><ele>9.0</ele><time>2026-04-20T16:23:33Z</time></trkpt><trkpt lat="43.309459279970866" lon="10.515505069974598"><ele>9.000000000000002</ele><time>2026-04-20T16:23:37Z</time></trkpt><trkpt lat="43.309442228110385" lon="10.51540051857121"><ele>9.0</ele><time>2026-04-20T16:23:41Z</time></trkpt><trkpt lat="43.30944432483838" lon="10.515313522189441"><ele>9.0</ele><time>2026-04-20T16:23:45Z</time></trkpt><trkpt lat="43.30943144307034" lon="10.515220010390289"><ele>9.0</ele><time>2026-04-20T16:23:49Z</time></trkpt><trkpt lat="43.3094059946464" lon="10.515128324061337"><ele>9.0</ele><time>2026-04-20T16:23:53Z</time></trkpt><trkpt lat="43.30938651744843" lon="10.515039017149006"><ele>9.0</ele><time>2026-04-20T16:23:58Z</time></trkpt><trkpt lat="43.3092643017778" lon="10.5144945262564"><ele>8.833333333333334</ele><time>2026-04-20T16:24:23.85Z</time></trkpt><trkpt lat="43.30916405159599" lon="10.514411457334042"><ele>8.666666666666666</ele><time>2026-04-20T16:24:24.8Z</time></trkpt><trkpt lat="43.30915119673809" lon="10.514321432370899"><ele>8.5</ele><time>2026-04-20T16:24:30.5Z</time></trkpt><trkpt lat="43.3091375176445" lon="10.514222280029921"><ele>8.333333333333332</ele><time>2026-04-20T16:24:36.2Z</time></trkpt><trkpt lat="43.30910078066579" lon="10.514143652295013"><ele>8.166666666666666</ele><time>2026-04-20T16:24:40Z</time></trkpt><trkpt lat="43.309035590586774" lon="10.514115463249263"><ele>8.0</ele><time>2026-04-20T16:24:47Z</time></trkpt><trkpt lat="43.30899244464705" lon="10.514051396034935"><ele>8.0</ele><time>2026-04-20T16:24:56Z</time></trkpt><trkpt lat="43.30894748233737" lon="10.513959473828416"><ele>7.999999999999999</ele><time>2026-04-20T16:25:03Z</time></trkpt><trkpt lat="43.30891061065514" lon="10.513883401287183"><ele>8.0</ele><time>2026-04-20T16:25:06Z</time></trkpt><trkpt lat="43.30889063591514" lon="10.513800823871343"><ele>8.0</ele><time>2026-04-20T16:25:11Z</time></trkpt><trkpt lat="43.30887891697892" lon="10.513715351819956"><ele>7.999999999999999</ele><time>2026-04-20T16:25:15Z</time></trkpt><trkpt lat="43.30884228031247" lon="10.513626397896179"><ele>8.0</ele><time>2026-04-20T16:25:19Z</time></trkpt><trkpt lat="43.308810306827176" lon="10.513550864528309"><ele>8.0</ele><time>2026-04-20T16:25:22Z</time></trkpt><trkpt lat="43.3087650774497" lon="10.513469143329077"><ele>8.0</ele><time>2026-04-20T16:25:27Z</time></trkpt><trkpt lat="43.30872625593289" lon="10.51339556858732"><ele>7.999999999999999</ele><time>2026-04-20T16:25:30Z</time></trkpt><trkpt lat="43.3086889804489" lon="10.513300292225736"><ele>8.0</ele><time>2026-04-20T16:25:34Z</time></trkpt><trkpt lat="43.308643280596456" lon="10.513203375832903"><ele>8.0</ele><time>2026-04-20T16:25:38Z</time></trkpt><trkpt lat="43.30860193797923" lon="10.513127180095031"><ele>7.999999999999999</ele><time>2026-04-20T16:25:42Z</time></trkpt><trkpt lat="43.308568847890875" lon="10.51305193962371"><ele>8.0</ele><time>2026-04-20T16:25:46Z</time></trkpt><trkpt lat="43.3085151014534" lon="10.512959297534733"><ele>8.0</ele><time>2026-04-20T16:25:51Z</time></trkpt><trkpt lat="43.308454104870954" lon="10.512883832031832"><ele>7.857142857142857</ele><time>2026-04-20T16:25:56Z</time></trkpt><trkpt lat="43.30841076407127" lon="10.512798225778557"><ele>7.7142857142857135</ele><time>2026-04-20T16:26:00Z</time></trkpt><trkpt lat="43.308376395976865" lon="10.512723442061137"><ele>7.571428571428571</ele><time>2026-04-20T16:26:05Z</time></trkpt><trkpt lat="43.30832973334403" lon="10.512644659852777"><ele>7.428571428571429</ele><time>2026-04-20T16:26:10Z</time></trkpt><trkpt lat="43.308323619325044" lon="10.512535201733604"><ele>7.285714285714286</ele><time>2026-04-20T16:26:14Z</time></trkpt><trkpt lat="43.30829964141409" lon="10.512447078592057"><ele>7.142857142857142</ele><time>2026-04-20T16:26:18Z</time></trkpt><trkpt lat="43.30827630864004" lon="10.512355669541327"><ele>7.0</ele><time>2026-04-20T16:26:23Z</time></trkpt><trkpt lat="43.30825632194121" lon="10.51226412109217"><ele>7.000000000000001</ele><time>2026-04-20T16:26:28Z</time></trkpt><trkpt lat="43.308205773102195" lon="10.512183847173876"><ele>7.0</ele><time>2026-04-20T16:26:32Z</time></trkpt><trkpt lat="43.308155462339954" lon="10.512105773837499"><ele>7.0</ele><time>2026-04-20T16:26:38Z</time></trkpt><trkpt lat="43.30811462718732" lon="10.5120099403385"><ele>7.0</ele><time>2026-04-20T16:26:44Z</time></trkpt><trkpt lat="43.30805954445011" lon="10.511943176698008"><ele>7.000000000000001</ele><time>2026-04-20T16:26:47Z</time></trkpt><trkpt lat="43.3080129519793" lon="10.511878968237738"><ele>7.0</ele><time>2026-04-20T16:26:52Z</time></trkpt><trkpt lat="43.30796448855818" lon="10.51179514416556"><ele>7.000000000000001</ele><time>2026-04-20T16:26:57Z</time></trkpt><trkpt lat="43.30792049672198" lon="10.511709241878533"><ele>7.0</ele><time>2026-04-20T16:27:01Z</time></trkpt><trkpt lat="43.30788567493089" lon="10.511627527809637"><ele>7.0</ele><time>2026-04-20T16:27:05Z</time></trkpt><trkpt lat="43.307846666799186" lon="10.511531498036897"><ele>7.0</ele><time>2026-04-20T16:27:10Z</time></trkpt><trkpt lat="43.307806248072225" lon="10.511431748648233"><ele>7.000000000000001</ele><time>2026-04-20T16:27:15Z</time></trkpt><trkpt lat="43.307773252207035" lon="10.511333890998037"><ele>7.0</ele><time>2026-04-20T16:27:20Z</time></trkpt><trkpt lat="43.30773719042111" lon="10.51125698706532"><ele>7.142857142857142</ele><time>2026-04-20T16:27:24Z</time></trkpt><trkpt lat="43.307696135412534" lon="10.511175004131974"><ele>7.285714285714286</ele><time>2026-04-20T16:27:28Z</time></trkpt><trkpt lat="43.3076579119685" lon="10.511084977476482"><ele>7.428571428571429</ele><time>2026-04-20T16:27:32Z</time></trkpt><trkpt lat="43.307612882930734" lon="10.51101894350279"><ele>7.571428571428571</ele><time>2026-04-20T16:27:36Z</time></trkpt><trkpt lat="43.307570287722186" lon="10.510926325334484"><ele>7.7142857142857135</ele><time>2026-04-20T16:27:41Z</time></trkpt><trkpt lat="43.307535727683266" lon="10.510846118485553"><ele>7.857142857142857</ele><time>2026-04-20T16:27:45Z</time></trkpt><trkpt lat="43.307488393420996" lon="10.510755792702867"><ele>8.0</ele><time>2026-04-20T16:27:50Z</time></trkpt><trkpt lat="43.30743827508142" lon="10.51067770154779"><ele>8.0</ele><time>2026-04-20T16:27:55Z</time></trkpt><trkpt lat="43.30739597222679" lon="10.510595036156174"><ele>7.999999999999999</ele><time>2026-04-20T16:28:00Z</time></trkpt><trkpt lat="43.307357339242415" lon="10.510508790326828"><ele>8.0</ele><time>2026-04-20T16:28:05Z</time></trkpt><trkpt lat="43.30731550717729" lon="10.510427460880472"><ele>8.0</ele><time>2026-04-20T16:28:09Z</time></trkpt><trkpt lat="43.30727715421787" lon="10.510343369355398"><ele>7.999999999999999</ele><time>2026-04-20T16:28:14Z</time></trkpt><trkpt lat="43.307220224163416" lon="10.510285828907543"><ele>8.0</ele><time>2026-04-20T16:28:18Z</time></trkpt><trkpt lat="43.3071865129981" lon="10.51019366676734"><ele>8.0</ele><time>2026-04-20T16:28:24Z</time></trkpt><trkpt lat="43.30715323485501" lon="10.510113724247137"><ele>7.857142857142857</ele><time>2026-04-20T16:28:28Z</time></trkpt><trkpt lat="43.307102462615504" lon="10.510059940942575"><ele>7.7142857142857135</ele><time>2026-04-20T16:28:32Z</time></trkpt><trkpt lat="43.307059181719" lon="10.509972542690203"><ele>7.571428571428571</ele><time>2026-04-20T16:28:37Z</time></trkpt><trkpt lat="43.30701977674363" lon="10.509888796337579"><ele>7.428571428571429</ele><time>2026-04-20T16:28:41Z</time></trkpt><trkpt lat="43.30697760006295" lon="10.509796714308068"><ele>7.285714285714286</ele><time>2026-04-20T16:28:46Z</time></trkpt><trkpt lat="43.30694035341787" lon="10.50970444764185"><ele>7.142857142857142</ele><time>2026-04-20T16:28:50Z</time></trkpt><trkpt lat="43.30691013945392" lon="10.509609517941744"><ele>7.0</ele><time>2026-04-20T16:28:54Z</time></trkpt><trkpt lat="43.30686763808747" lon="10.509505468031334"><ele>6.857142857142857</ele><time>2026-04-20T16:28:58Z</time></trkpt><trkpt lat="43.30681890020554" lon="10.509433166469265"><ele>6.714285714285714</ele><time>2026-04-20T16:29:03Z</time></trkpt><trkpt lat="43.30677854937484" lon="10.50935088972225"><ele>6.571428571428571</ele><time>2026-04-20T16:29:07Z</time></trkpt><trkpt lat="43.306746965763764" lon="10.509259042954096"><ele>6.428571428571429</ele><time>2026-04-20T16:29:11Z</time></trkpt><trkpt lat="43.30672110708388" lon="10.509176644992817"><ele>6.285714285714286</ele><time>2026-04-20T16:29:15Z</time></trkpt><trkpt lat="43.306678020448416" lon="10.5090881082611"><ele>6.142857142857142</ele><time>2026-04-20T16:29:20Z</time></trkpt><trkpt lat="43.30663799556682" lon="10.509007622216517"><ele>6.0</ele><time>2026-04-20T16:29:24Z</time></trkpt><trkpt lat="43.30660221299073" lon="10.508933962564386"><ele>5.999999999999999</ele><time>2026-04-20T16:29:28Z</time></trkpt><trkpt lat="43.306561442605954" lon="10.50884969283638"><ele>6.0</ele><time>2026-04-20T16:29:32Z</time></trkpt><trkpt lat="43.30653555627956" lon="10.508760105504695"><ele>6.0</ele><time>2026-04-20T16:29:36Z</time></trkpt><trkpt lat="43.30650060314581" lon="10.508670604431368"><ele>6.0</ele><time>2026-04-20T16:29:40Z</time></trkpt><trkpt lat="43.306455448562716" lon="10.5085997821334"><ele>6.0</ele><time>2026-04-20T16:29:44Z</time></trkpt><trkpt lat="43.306414723903295" lon="10.508525168135415"><ele>5.999999999999999</ele><time>2026-04-20T16:29:50Z</time></trkpt><trkpt lat="43.30639714625983" lon="10.508435433812163"><ele>6.0</ele><time>2026-04-20T16:29:54Z</time></trkpt><trkpt lat="43.30636929719224" lon="10.508355994334675"><ele>6.142857142857142</ele><time>2026-04-20T16:29:57Z</time></trkpt><trkpt lat="43.306329630367166" lon="10.50826814033354"><ele>6.285714285714286</ele><time>2026-04-20T16:30:01Z</time></trkpt><trkpt lat="43.30628541011216" lon="10.508197497060598"><ele>6.428571428571429</ele><time>2026-04-20T16:30:04Z</time></trkpt><trkpt lat="43.3062426962128" lon="10.508123624559714"><ele>6.571428571428571</ele><time>2026-04-20T16:30:09Z</time></trkpt><trkpt lat="43.30619556540688" lon="10.508056179161285"><ele>6.714285714285714</ele><time>2026-04-20T16:30:14Z</time></trkpt><trkpt lat="43.306149621134985" lon="10.507962846965206"><ele>6.857142857142857</ele><time>2026-04-20T16:30:19Z</time></trkpt><trkpt lat="43.30614134085305" lon="10.507875264340335"><ele>7.0</ele><time>2026-04-20T16:30:23Z</time></trkpt><trkpt lat="43.306080778898625" lon="10.50780916170479"><ele>7.0</ele><time>2026-04-20T16:30:29Z</time></trkpt><trkpt lat="43.306025573164675" lon="10.50776094273617"><ele>7.0</ele><time>2026-04-20T16:30:32Z</time></trkpt><trkpt lat="43.30597445671142" lon="10.507704212310369"><ele>7.0</ele><time>2026-04-20T16:30:37Z</time></trkpt><trkpt lat="43.3059238137232" lon="10.507640074008538"><ele>7.0</ele><time>2026-04-20T16:30:43Z</time></trkpt><trkpt lat="43.30587727350547" lon="10.507565160458515"><ele>7.0</ele><time>2026-04-20T16:30:47Z</time></trkpt><trkpt lat="43.30582079203921" lon="10.507501337775597"><ele>7.0</ele><time>2026-04-20T16:30:51Z</time></trkpt><trkpt lat="43.305792956904384" lon="10.50742281605326"><ele>7.0</ele><time>2026-04-20T16:30:54Z</time></trkpt><trkpt lat="43.30576371408568" lon="10.507316977577085"><ele>7.0</ele><time>2026-04-20T16:30:58Z</time></trkpt><trkpt lat="43.30572772849495" lon="10.507233122018821"><ele>7.0</ele><time>2026-04-20T16:31:02Z</time></trkpt><trkpt lat="43.30567988414423" lon="10.507147159230628"><ele>7.0</ele><time>2026-04-20T16:31:07Z</time></trkpt><trkpt lat="43.305644857316274" lon="10.507042889986664"><ele>7.0</ele><time>2026-04-20T16:31:11Z</time></trkpt><trkpt lat="43.30562162019626" lon="10.506959945147381"><ele>7.0</ele><time>2026-04-20T16:31:14Z</time></trkpt><trkpt lat="43.30558386525699" lon="10.506868072036774"><ele>7.0</ele><time>2026-04-20T16:31:18Z</time></trkpt><trkpt lat="43.30554285423667" lon="10.50680190726032"><ele>7.0</ele><time>2026-04-20T16:31:22Z</time></trkpt><trkpt lat="43.305496563019965" lon="10.506723795652267"><ele>6.714285714285714</ele><time>2026-04-20T16:31:26Z</time></trkpt><trkpt lat="43.305450567023854" lon="10.50663894206718"><ele>6.428571428571429</ele><time>2026-04-20T16:31:31Z</time></trkpt><trkpt lat="43.30540924295213" lon="10.506565358344874"><ele>6.142857142857142</ele><time>2026-04-20T16:31:36Z</time></trkpt><trkpt lat="43.30537800139925" lon="10.50647430776751"><ele>5.857142857142858</ele><time>2026-04-20T16:31:40Z</time></trkpt><trkpt lat="43.30534265536627" lon="10.506389881610824"><ele>5.571428571428571</ele><time>2026-04-20T16:31:44Z</time></trkpt><trkpt lat="43.305312432126094" lon="10.506301520104147"><ele>5.285714285714286</ele><time>2026-04-20T16:31:48Z</time></trkpt><trkpt lat="43.305276053117105" lon="10.506206418084508"><ele>5.0</ele><time>2026-04-20T16:31:52Z</time></trkpt><trkpt lat="43.30525003790217" lon="10.50612443601943"><ele>4.857142857142857</ele><time>2026-04-20T16:31:57Z</time></trkpt><trkpt lat="43.30523522365136" lon="10.506039769889924"><ele>4.714285714285714</ele><time>2026-04-20T16:32:01Z</time></trkpt><trkpt lat="43.30520357353461" lon="10.505956361158555"><ele>4.571428571428571</ele><time>2026-04-20T16:32:06Z</time></trkpt><trkpt lat="43.30515867798753" lon="10.505875611516634"><ele>4.428571428571429</ele><time>2026-04-20T16:32:09Z</time></trkpt><trkpt lat="43.305104134963706" lon="10.505808442576738"><ele>4.285714285714286</ele><time>2026-04-20T16:32:15Z</time></trkpt><trkpt lat="43.3050812050271" lon="10.50572736818567"><ele>4.142857142857142</ele><time>2026-04-20T16:32:20Z</time></trkpt><trkpt lat="43.305025374558234" lon="10.505661149595106"><ele>4.0</ele><time>2026-04-20T16:32:23Z</time></trkpt><trkpt lat="43.304963016065514" lon="10.505601784897244"><ele>4.0</ele><time>2026-04-20T16:32:27Z</time></trkpt><trkpt lat="43.30492137695913" lon="10.505535986717357"><ele>3.9999999999999996</ele><time>2026-04-20T16:32:31Z</time></trkpt><trkpt lat="43.30489868853005" lon="10.505447860907047"><ele>4.0</ele><time>2026-04-20T16:32:35Z</time></trkpt><trkpt lat="43.304873966997306" lon="10.505366630636484"><ele>4.0</ele><time>2026-04-20T16:32:38Z</time></trkpt><trkpt lat="43.30484882654648" lon="10.505263327002627"><ele>3.9999999999999996</ele><time>2026-04-20T16:32:42Z</time></trkpt><trkpt lat="43.304806323212524" lon="10.505176593774026"><ele>4.0</ele><time>2026-04-20T16:32:47Z</time></trkpt><trkpt lat="43.30475418842349" lon="10.505093450156199"><ele>4.0</ele><time>2026-04-20T16:32:51Z</time></trkpt><trkpt lat="43.30471490893916" lon="10.505019093901383"><ele>4.0</ele><time>2026-04-20T16:32:55Z</time></trkpt><trkpt lat="43.30467887560841" lon="10.504936101079858"><ele>3.9999999999999996</ele><time>2026-04-20T16:33:02Z</time></trkpt><trkpt lat="43.304643537373664" lon="10.504836992790295"><ele>4.0</ele><time>2026-04-20T16:33:06Z</time></trkpt><trkpt lat="43.30460984934439" lon="10.504763149534167"><ele>4.0</ele><time>2026-04-20T16:33:10Z</time></trkpt><trkpt lat="43.30457620001434" lon="10.504672756497124"><ele>3.9999999999999996</ele><time>2026-04-20T16:33:17Z</time></trkpt><trkpt lat="43.304535547626" lon="10.504599059088381"><ele>4.0</ele><time>2026-04-20T16:33:22Z</time></trkpt><trkpt lat="43.304495689613695" lon="10.50451779561992"><ele>4.0</ele><time>2026-04-20T16:33:26Z</time></trkpt><trkpt lat="43.30445037800973" lon="10.504431372030968"><ele>4.0</ele><time>2026-04-20T16:33:30Z</time></trkpt><trkpt lat="43.30440898326865" lon="10.504349513541827"><ele>3.9999999999999996</ele><time>2026-04-20T16:33:34Z</time></trkpt><trkpt lat="43.3043678282594" lon="10.504273981253352"><ele>4.0</ele><time>2026-04-20T16:33:37Z</time></trkpt><trkpt lat="43.30432913154336" lon="10.504196348678606"><ele>4.0</ele><time>2026-04-20T16:33:41Z</time></trkpt><trkpt lat="43.304272936392344" lon="10.504119438567505"><ele>3.9999999999999996</ele><time>2026-04-20T16:33:46Z</time></trkpt><trkpt lat="43.304232210243214" lon="10.504027120841075"><ele>4.0</ele><time>2026-04-20T16:33:50Z</time></trkpt><trkpt lat="43.30419652261683" lon="10.503940141929386"><ele>4.0</ele><time>2026-04-20T16:33:54Z</time></trkpt><trkpt lat="43.30415825587492" lon="10.50385969762934"><ele>4.0</ele><time>2026-04-20T16:33:58Z</time></trkpt><trkpt lat="43.304124419190295" lon="10.503777309169537"><ele>3.9999999999999996</ele><time>2026-04-20T16:34:03Z</time></trkpt><trkpt lat="43.30410076415015" lon="10.50368091425111"><ele>4.0</ele><time>2026-04-20T16:34:07Z</time></trkpt><trkpt lat="43.30408721510018" lon="10.503590514925966"><ele>4.0</ele><time>2026-04-20T16:34:11Z</time></trkpt><trkpt lat="43.30404761880629" lon="10.50351788746496"><ele>3.9999999999999996</ele><time>2026-04-20T16:34:15Z</time></trkpt><trkpt lat="43.30400429146027" lon="10.503450310887889"><ele>4.0</ele><time>2026-04-20T16:34:20Z</time></trkpt><trkpt lat="43.30395232249118" lon="10.503379202010422"><ele>4.0</ele><time>2026-04-20T16:34:24Z</time></trkpt><trkpt lat="43.30389415220392" lon="10.503301621096874"><ele>3.8571428571428568</ele><time>2026-04-20T16:34:29Z</time></trkpt><trkpt lat="43.30384455126917" lon="10.503223411420441"><ele>3.714285714285714</ele><time>2026-04-20T16:34:33Z</time></trkpt><trkpt lat="43.303813687381" lon="10.503137244510603"><ele>3.571428571428571</ele><time>2026-04-20T16:34:38Z</time></trkpt><trkpt lat="43.30377448302453" lon="10.503048438097537"><ele>3.4285714285714284</ele><time>2026-04-20T16:34:42Z</time></trkpt><trkpt lat="43.3037259881639" lon="10.502979083125215"><ele>3.2857142857142856</ele><time>2026-04-20T16:34:48Z</time></trkpt><trkpt lat="43.303680792326105" lon="10.50289869507158"><ele>3.1428571428571423</ele><time>2026-04-20T16:34:52Z</time></trkpt><trkpt lat="43.303630693523395" lon="10.502815307558185"><ele>3.0</ele><time>2026-04-20T16:34:57Z</time></trkpt><trkpt lat="43.30359761169442" lon="10.502741675053912"><ele>2.9999999999999996</ele><time>2026-04-20T16:35:00Z</time></trkpt><trkpt lat="43.30355771686276" lon="10.502662889332967"><ele>3.0</ele><time>2026-04-20T16:35:05Z</time></trkpt><trkpt lat="43.30352941238063" lon="10.502583606022052"><ele>3.0</ele><time>2026-04-20T16:35:09Z</time></trkpt><trkpt lat="43.30348291718408" lon="10.502502637081964"><ele>3.0</ele><time>2026-04-20T16:35:14Z</time></trkpt><trkpt lat="43.303438796787994" lon="10.502438771134877"><ele>3.0</ele><time>2026-04-20T16:35:18Z</time></trkpt><trkpt lat="43.3034081028261" lon="10.502345051079546"><ele>2.9999999999999996</ele><time>2026-04-20T16:35:23Z</time></trkpt><trkpt lat="43.303378506679756" lon="10.502256698031484"><ele>3.0</ele><time>2026-04-20T16:35:27Z</time></trkpt><trkpt lat="43.30334942930741" lon="10.502161175114045"><ele>3.1428571428571423</ele><time>2026-04-20T16:35:31Z</time></trkpt><trkpt lat="43.30331866716539" lon="10.502069327105524"><ele>3.2857142857142856</ele><time>2026-04-20T16:35:35Z</time></trkpt><trkpt lat="43.303282929682375" lon="10.501983065733492"><ele>3.4285714285714284</ele><time>2026-04-20T16:35:40Z</time></trkpt><trkpt lat="43.303239436321235" lon="10.501879710408966"><ele>3.571428571428571</ele><time>2026-04-20T16:35:45Z</time></trkpt><trkpt lat="43.30319774851844" lon="10.501807679929355"><ele>3.714285714285714</ele><time>2026-04-20T16:35:49Z</time></trkpt><trkpt lat="43.30316543971678" lon="10.501732575735979"><ele>3.8571428571428568</ele><time>2026-04-20T16:35:52Z</time></trkpt><trkpt lat="43.30312955600589" lon="10.501661453763731"><ele>4.0</ele><time>2026-04-20T16:35:56Z</time></trkpt><trkpt lat="43.30308409996423" lon="10.501571945224292"><ele>4.0</ele><time>2026-04-20T16:36:01Z</time></trkpt><trkpt lat="43.30303566737668" lon="10.501493755973845"><ele>3.9999999999999996</ele><time>2026-04-20T16:36:05Z</time></trkpt><trkpt lat="43.302996345606566" lon="10.501411857649456"><ele>4.0</ele><time>2026-04-20T16:36:09Z</time></trkpt><trkpt lat="43.30295055321533" lon="10.501336972985477"><ele>4.0</ele><time>2026-04-20T16:36:14Z</time></trkpt><trkpt lat="43.30290855535701" lon="10.501251387019627"><ele>3.9999999999999996</ele><time>2026-04-20T16:36:19Z</time></trkpt><trkpt lat="43.30287472344273" lon="10.501163748292111"><ele>4.0</ele><time>2026-04-20T16:36:24Z</time></trkpt><trkpt lat="43.30283737002306" lon="10.501066120562554"><ele>4.0</ele><time>2026-04-20T16:36:28Z</time></trkpt><trkpt lat="43.30279264524874" lon="10.501004244300148"><ele>4.0</ele><time>2026-04-20T16:36:32Z</time></trkpt><trkpt lat="43.30274470923194" lon="10.500932962116245"><ele>3.9999999999999996</ele><time>2026-04-20T16:36:37Z</time></trkpt><trkpt lat="43.302713734135374" lon="10.50085183761142"><ele>4.0</ele><time>2026-04-20T16:36:43Z</time></trkpt><trkpt lat="43.30268380091011" lon="10.500744952505526"><ele>4.0</ele><time>2026-04-20T16:36:48Z</time></trkpt><trkpt lat="43.30264904908954" lon="10.50067174332524"><ele>3.9999999999999996</ele><time>2026-04-20T16:36:53Z</time></trkpt><trkpt lat="43.302608542126634" lon="10.50059173281546"><ele>4.0</ele><time>2026-04-20T16:36:57Z</time></trkpt><trkpt lat="43.302560042229786" lon="10.500510431873849"><ele>4.0</ele><time>2026-04-20T16:37:02Z</time></trkpt><trkpt lat="43.30251751451481" lon="10.500438427908342"><ele>4.0</ele><time>2026-04-20T16:37:06Z</time></trkpt><trkpt lat="43.30247449594942" lon="10.500357858498791"><ele>3.9999999999999996</ele><time>2026-04-20T16:37:10Z</time></trkpt><trkpt lat="43.30243792720035" lon="10.50027691846769"><ele>4.0</ele><time>2026-04-20T16:37:14Z</time></trkpt><trkpt lat="43.302389838049315" lon="10.500187930721323"><ele>4.0</ele><time>2026-04-20T16:37:18Z</time></trkpt><trkpt lat="43.302347704052295" lon="10.500108640052913"><ele>3.9999999999999996</ele><time>2026-04-20T16:37:22Z</time></trkpt><trkpt lat="43.302318915941456" lon="10.500019769422911"><ele>4.0</ele><time>2026-04-20T16:37:26Z</time></trkpt><trkpt lat="43.30228376084166" lon="10.499924707626583"><ele>4.0</ele><time>2026-04-20T16:37:30Z</time></trkpt><trkpt lat="43.30224787100977" lon="10.499835498615077"><ele>4.0</ele><time>2026-04-20T16:37:34Z</time></trkpt><trkpt lat="43.30223354629268" lon="10.499751111578828"><ele>3.9999999999999996</ele><time>2026-04-20T16:37:39Z</time></trkpt><trkpt lat="43.30219172504976" lon="10.499648595378298"><ele>4.0</ele><time>2026-04-20T16:37:43Z</time></trkpt><trkpt lat="43.302139303316" lon="10.499564267310658"><ele>4.0</ele><time>2026-04-20T16:37:48Z</time></trkpt><trkpt lat="43.30209856029685" lon="10.499495452397293"><ele>3.9999999999999996</ele><time>2026-04-20T16:37:52Z</time></trkpt><trkpt lat="43.3020603353311" lon="10.499406151365887"><ele>4.0</ele><time>2026-04-20T16:37:57Z</time></trkpt><trkpt lat="43.302018065538824" lon="10.499331968138112"><ele>4.0</ele><time>2026-04-20T16:38:02Z</time></trkpt><trkpt lat="43.301991223466096" lon="10.49923930315007"><ele>4.0</ele><time>2026-04-20T16:38:07Z</time></trkpt><trkpt lat="43.30193247466595" lon="10.499171703998615"><ele>3.9999999999999996</ele><time>2026-04-20T16:38:11Z</time></trkpt><trkpt lat="43.30188929031941" lon="10.49908723510449"><ele>4.0</ele><time>2026-04-20T16:38:16Z</time></trkpt><trkpt lat="43.301847142850995" lon="10.499003018077266"><ele>4.0</ele><time>2026-04-20T16:38:20Z</time></trkpt><trkpt lat="43.301818361271444" lon="10.498914964619477"><ele>3.9999999999999996</ele><time>2026-04-20T16:38:25Z</time></trkpt><trkpt lat="43.30177255732203" lon="10.49883129952799"><ele>4.0</ele><time>2026-04-20T16:38:30Z</time></trkpt><trkpt lat="43.30171573523152" lon="10.498764844542347"><ele>4.0</ele><time>2026-04-20T16:38:35Z</time></trkpt><trkpt lat="43.30168213851622" lon="10.498689590241595"><ele>4.0</ele><time>2026-04-20T16:38:38Z</time></trkpt><trkpt lat="43.30165470739948" lon="10.498589419719094"><ele>3.9999999999999996</ele><time>2026-04-20T16:38:42Z</time></trkpt><trkpt lat="43.30163365828484" lon="10.498498397200038"><ele>4.0</ele><time>2026-04-20T16:38:48Z</time></trkpt><trkpt lat="43.30159318460784" lon="10.498426707288129"><ele>4.0</ele><time>2026-04-20T16:38:52Z</time></trkpt><trkpt lat="43.30155287909561" lon="10.498340640019427"><ele>3.9999999999999996</ele><time>2026-04-20T16:38:56Z</time></trkpt><trkpt lat="43.30151343597418" lon="10.498251537900197"><ele>4.0</ele><time>2026-04-20T16:39:00Z</time></trkpt><trkpt lat="43.301474750478874" lon="10.498177821447575"><ele>4.0</ele><time>2026-04-20T16:39:04Z</time></trkpt><trkpt lat="43.30143287416728" lon="10.49809173758132"><ele>3.8571428571428568</ele><time>2026-04-20T16:39:09Z</time></trkpt><trkpt lat="43.30138847727594" lon="10.498026359411517"><ele>3.714285714285714</ele><time>2026-04-20T16:39:14Z</time></trkpt><trkpt lat="43.30134369259438" lon="10.497924011451207"><ele>3.571428571428571</ele><time>2026-04-20T16:39:18Z</time></trkpt><trkpt lat="43.3013157794863" lon="10.497832060100988"><ele>3.4285714285714284</ele><time>2026-04-20T16:39:22Z</time></trkpt><trkpt lat="43.30126805317517" lon="10.497752447497014"><ele>3.2857142857142856</ele><time>2026-04-20T16:39:27Z</time></trkpt><trkpt lat="43.30121984788587" lon="10.497667384662586"><ele>3.1428571428571423</ele><time>2026-04-20T16:39:32Z</time></trkpt><trkpt lat="43.30118569612672" lon="10.497588557102631"><ele>3.0</ele><time>2026-04-20T16:39:36Z</time></trkpt><trkpt lat="43.30114761508143" lon="10.497512763781295"><ele>2.9999999999999996</ele><time>2026-04-20T16:39:40Z</time></trkpt><trkpt lat="43.30111059439795" lon="10.497436317464253"><ele>3.0</ele><time>2026-04-20T16:39:44Z</time></trkpt><trkpt lat="43.30107452539991" lon="10.497364762569276"><ele>3.0</ele><time>2026-04-20T16:39:48Z</time></trkpt><trkpt lat="43.3010271194337" lon="10.497290668344027"><ele>3.0</ele><time>2026-04-20T16:39:53Z</time></trkpt><trkpt lat="43.30097718522238" lon="10.497214892629003"><ele>3.0</ele><time>2026-04-20T16:39:59Z</time></trkpt><trkpt lat="43.300930460133614" lon="10.497156184383256"><ele>2.9999999999999996</ele><time>2026-04-20T16:40:04Z</time></trkpt><trkpt lat="43.30087428204161" lon="10.497106014126263"><ele>3.0</ele><time>2026-04-20T16:40:11Z</time></trkpt><trkpt lat="43.30084272907182" lon="10.49701123187438"><ele>2.9999999999999996</ele><time>2026-04-20T16:40:15Z</time></trkpt><trkpt lat="43.30085947592192" lon="10.496917611108776"><ele>3.0</ele><time>2026-04-20T16:40:18Z</time></trkpt><trkpt lat="43.30083466337896" lon="10.496828659844612"><ele>3.0</ele><time>2026-04-20T16:40:21Z</time></trkpt><trkpt lat="43.3007571251159" lon="10.496820998691046"><ele>3.0</ele><time>2026-04-20T16:40:25Z</time></trkpt><trkpt lat="43.300695173215125" lon="10.496798616467665"><ele>3.0</ele><time>2026-04-20T16:40:31Z</time></trkpt><trkpt lat="43.30071593733366" lon="10.496703731195653"><ele>2.9999999999999996</ele><time>2026-04-20T16:40:41Z</time></trkpt><trkpt lat="43.3007233130224" lon="10.496615236376655"><ele>3.0</ele><time>2026-04-20T16:40:46Z</time></trkpt><trkpt lat="43.30069569703585" lon="10.496515087704434"><ele>2.9999999999999996</ele><time>2026-04-20T16:40:52Z</time></trkpt><trkpt lat="43.30063301249087" lon="10.496441099178226"><ele>3.0</ele><time>2026-04-20T16:40:58Z</time></trkpt><trkpt lat="43.30058786626461" lon="10.496359400214029"><ele>3.0</ele><time>2026-04-20T16:41:03Z</time></trkpt><trkpt lat="43.30054076108635" lon="10.49629280432458"><ele>3.0</ele><time>2026-04-20T16:41:07Z</time></trkpt><trkpt lat="43.30051242193234" lon="10.496206295298268"><ele>3.0</ele><time>2026-04-20T16:41:12Z</time></trkpt><trkpt lat="43.30046144499242" lon="10.49612793018103"><ele>2.9999999999999996</ele><time>2026-04-20T16:41:17Z</time></trkpt><trkpt lat="43.3004150848842" lon="10.496057834438805"><ele>3.0</ele><time>2026-04-20T16:41:21Z</time></trkpt><trkpt lat="43.30039052066549" lon="10.495977601805441"><ele>2.9999999999999996</ele><time>2026-04-20T16:41:26Z</time></trkpt><trkpt lat="43.3003590235096" lon="10.49589618475457"><ele>3.0</ele><time>2026-04-20T16:41:29Z</time></trkpt><trkpt lat="43.30030818001536" lon="10.495816209849796"><ele>3.0</ele><time>2026-04-20T16:41:34Z</time></trkpt><trkpt lat="43.30028742447317" lon="10.495714756196058"><ele>3.0</ele><time>2026-04-20T16:41:38Z</time></trkpt><trkpt lat="43.30024273553797" lon="10.495625654058896"><ele>3.0</ele><time>2026-04-20T16:41:42Z</time></trkpt><trkpt lat="43.30019788062328" lon="10.49554664799362"><ele>2.9999999999999996</ele><time>2026-04-20T16:41:47Z</time></trkpt><trkpt lat="43.30015356739311" lon="10.495483623132495"><ele>3.0</ele><time>2026-04-20T16:41:51Z</time></trkpt><trkpt lat="43.30014277104302" lon="10.495398385201497"><ele>2.9999999999999996</ele><time>2026-04-20T16:41:55Z</time></trkpt><trkpt lat="43.300091087727864" lon="10.495332488802724"><ele>3.0</ele><time>2026-04-20T16:41:59Z</time></trkpt><trkpt lat="43.300060695477995" lon="10.495249708032377"><ele>3.0</ele><time>2026-04-20T16:42:07Z</time></trkpt><trkpt lat="43.30001831612861" lon="10.495164424564969"><ele>3.0</ele><time>2026-04-20T16:42:12Z</time></trkpt><trkpt lat="43.29996390402668" lon="10.49509209016189"><ele>3.0</ele><time>2026-04-20T16:42:16Z</time></trkpt><trkpt lat="43.29992849796711" lon="10.495018610500804"><ele>2.9999999999999996</ele><time>2026-04-20T16:42:20Z</time></trkpt><trkpt lat="43.29989607123274" lon="10.494929681489946"><ele>3.0</ele><time>2026-04-20T16:42:23Z</time></trkpt><trkpt lat="43.29987874471531" lon="10.494839693997113"><ele>2.9999999999999996</ele><time>2026-04-20T16:42:26Z</time></trkpt><trkpt lat="43.299841178294066" lon="10.494764919678296"><ele>3.0</ele><time>2026-04-20T16:42:29Z</time></trkpt><trkpt lat="43.299805569527734" lon="10.494672668477348"><ele>3.0</ele><time>2026-04-20T16:42:34Z</time></trkpt><trkpt lat="43.299775363463745" lon="10.494579219393026"><ele>3.0</ele><time>2026-04-20T16:42:38Z</time></trkpt><trkpt lat="43.29973601516904" lon="10.494484081032699"><ele>3.0</ele><time>2026-04-20T16:42:42Z</time></trkpt><trkpt lat="43.29968565461899" lon="10.494414787518398"><ele>2.9999999999999996</ele><time>2026-04-20T16:42:48Z</time></trkpt><trkpt lat="43.29965506614363" lon="10.494331364814522"><ele>3.0</ele><time>2026-04-20T16:42:52Z</time></trkpt><trkpt lat="43.29961777176436" lon="10.494245264362828"><ele>3.2857142857142856</ele><time>2026-04-20T16:42:56Z</time></trkpt><trkpt lat="43.29957197762352" lon="10.494174430656168"><ele>3.571428571428571</ele><time>2026-04-20T16:43:00Z</time></trkpt><trkpt lat="43.29952831718184" lon="10.494094070169982"><ele>3.8571428571428568</ele><time>2026-04-20T16:43:05Z</time></trkpt><trkpt lat="43.2994872132266" lon="10.494016179325168"><ele>4.142857142857142</ele><time>2026-04-20T16:43:10Z</time></trkpt><trkpt lat="43.299419909182035" lon="10.49397875578233"><ele>4.428571428571429</ele><time>2026-04-20T16:43:14Z</time></trkpt><trkpt lat="43.29938233808107" lon="10.493904030805929"><ele>4.714285714285714</ele><time>2026-04-20T16:43:19Z</time></trkpt><trkpt lat="43.299338836987914" lon="10.49381583760309"><ele>5.0</ele><time>2026-04-20T16:43:25Z</time></trkpt><trkpt lat="43.29935662303338" lon="10.493724821800196"><ele>5.0</ele><time>2026-04-20T16:43:31Z</time></trkpt><trkpt lat="43.29933482831064" lon="10.493634237036225"><ele>5.0</ele><time>2026-04-20T16:43:35Z</time></trkpt><trkpt lat="43.2992931495292" lon="10.493557637566393"><ele>5.0</ele><time>2026-04-20T16:43:39Z</time></trkpt><trkpt lat="43.29924834966303" lon="10.49348131139579"><ele>5.0</ele><time>2026-04-20T16:43:43Z</time></trkpt><trkpt lat="43.299215798338736" lon="10.493386249517226"><ele>5.0</ele><time>2026-04-20T16:43:48Z</time></trkpt><trkpt lat="43.29919675685744" lon="10.493293361038479"><ele>5.0</ele><time>2026-04-20T16:43:53Z</time></trkpt><trkpt lat="43.2991564819196" lon="10.49320237377189"><ele>5.0</ele><time>2026-04-20T16:43:58Z</time></trkpt><trkpt lat="43.299113885216435" lon="10.49313193649812"><ele>5.0</ele><time>2026-04-20T16:44:02Z</time></trkpt><trkpt lat="43.29907611689276" lon="10.493044421046207"><ele>5.0</ele><time>2026-04-20T16:44:07Z</time></trkpt><trkpt lat="43.299043391055505" lon="10.492964778613526"><ele>5.0</ele><time>2026-04-20T16:44:12Z</time></trkpt><trkpt lat="43.29900806778238" lon="10.49287479953524"><ele>5.0</ele><time>2026-04-20T16:44:16Z</time></trkpt><trkpt lat="43.29897605474986" lon="10.492792111577723"><ele>5.0</ele><time>2026-04-20T16:44:20Z</time></trkpt><trkpt lat="43.29893777696081" lon="10.492698954860328"><ele>5.0</ele><time>2026-04-20T16:44:25Z</time></trkpt><trkpt lat="43.29891304920079" lon="10.49261251937705"><ele>5.0</ele><time>2026-04-20T16:44:30Z</time></trkpt><trkpt lat="43.29886528885205" lon="10.49254281995431"><ele>5.0</ele><time>2026-04-20T16:44:37Z</time></trkpt><trkpt lat="43.29890771248282" lon="10.492631283267922"><ele>5.0</ele><time>2026-04-20T16:44:58Z</time></trkpt><trkpt lat="43.298937398031725" lon="10.492710091160594"><ele>5.0</ele><time>2026-04-20T16:45:03Z</time></trkpt><trkpt lat="43.298976428688064" lon="10.492792800154676"><ele>5.0</ele><time>2026-04-20T16:45:08Z</time></trkpt><trkpt lat="43.29901217556408" lon="10.492871564081664"><ele>5.0</ele><time>2026-04-20T16:45:13Z</time></trkpt><trkpt lat="43.29904591398901" lon="10.492956328482304"><ele>5.0</ele><time>2026-04-20T16:45:18Z</time></trkpt><trkpt lat="43.299075471071234" lon="10.493039093777405"><ele>5.0</ele><time>2026-04-20T16:45:23Z</time></trkpt><trkpt lat="43.29911778279457" lon="10.493123806543458"><ele>5.0</ele><time>2026-04-20T16:45:28Z</time></trkpt><trkpt lat="43.299160668860964" lon="10.493210369750189"><ele>5.0</ele><time>2026-04-20T16:45:33Z</time></trkpt><trkpt lat="43.29920028777495" lon="10.493296664197464"><ele>5.0</ele><time>2026-04-20T16:45:38Z</time></trkpt><trkpt lat="43.299242335980054" lon="10.493385585277007"><ele>5.0</ele><time>2026-04-20T16:45:43Z</time></trkpt><trkpt lat="43.299278548503914" lon="10.493469982451243"><ele>5.0</ele><time>2026-04-20T16:45:48Z</time></trkpt><trkpt lat="43.29932247126179" lon="10.493558787728562"><ele>5.0</ele><time>2026-04-20T16:45:53Z</time></trkpt><trkpt lat="43.29931327379482" lon="10.493645671547231"><ele>5.0</ele><time>2026-04-20T16:45:58Z</time></trkpt><trkpt lat="43.29931321931071" lon="10.493737034714272"><ele>5.0</ele><time>2026-04-20T16:46:09Z</time></trkpt><trkpt lat="43.299381578302366" lon="10.493759969030078"><ele>5.0</ele><time>2026-04-20T16:46:19Z</time></trkpt><trkpt lat="43.299421452602076" lon="10.493842147140803"><ele>5.0</ele><time>2026-04-20T16:46:22Z</time></trkpt><trkpt lat="43.29946899750306" lon="10.493941868278867"><ele>5.0</ele><time>2026-04-20T16:46:26Z</time></trkpt><trkpt lat="43.29950226744899" lon="10.494020026066224"><ele>5.0</ele><time>2026-04-20T16:46:29Z</time></trkpt><trkpt lat="43.299542141645574" lon="10.494120952414137"><ele>5.0</ele><time>2026-04-20T16:46:33Z</time></trkpt><trkpt lat="43.29957672244856" lon="10.494197885108148"><ele>5.0</ele><time>2026-04-20T16:46:37Z</time></trkpt><trkpt lat="43.29960814248899" lon="10.494298081700457"><ele>5.0</ele><time>2026-04-20T16:46:41Z</time></trkpt><trkpt lat="43.299640477020226" lon="10.494387711731298"><ele>5.0</ele><time>2026-04-20T16:46:45Z</time></trkpt><trkpt lat="43.29967284938253" lon="10.494466087233883"><ele>5.0</ele><time>2026-04-20T16:46:49Z</time></trkpt><trkpt lat="43.29970926549232" lon="10.49453702400901"><ele>5.0</ele><time>2026-04-20T16:46:53Z</time></trkpt><trkpt lat="43.29975556938041" lon="10.494603585716533"><ele>5.0</ele><time>2026-04-20T16:46:57Z</time></trkpt><trkpt lat="43.299798827282224" lon="10.494680079165834"><ele>5.0</ele><time>2026-04-20T16:47:02Z</time></trkpt><trkpt lat="43.29981729745089" lon="10.494776953478372"><ele>5.0</ele><time>2026-04-20T16:47:05Z</time></trkpt><trkpt lat="43.299857979086" lon="10.494847976103898"><ele>4.714285714285714</ele><time>2026-04-20T16:47:08Z</time></trkpt><trkpt lat="43.29990007688359" lon="10.494929925935368"><ele>4.428571428571429</ele><time>2026-04-20T16:47:12Z</time></trkpt><trkpt lat="43.29993281336987" lon="10.495011822577805"><ele>4.142857142857142</ele><time>2026-04-20T16:47:17Z</time></trkpt><trkpt lat="43.29995747884278" lon="10.495092182736947"><ele>3.8571428571428568</ele><time>2026-04-20T16:47:21Z</time></trkpt><trkpt lat="43.30000355893923" lon="10.495161005077417"><ele>3.571428571428571</ele><time>2026-04-20T16:47:25Z</time></trkpt><trkpt lat="43.30004940659587" lon="10.495221817734592"><ele>3.2857142857142856</ele><time>2026-04-20T16:47:28Z</time></trkpt><trkpt lat="43.30007846618455" lon="10.495301565880919"><ele>3.0</ele><time>2026-04-20T16:47:32Z</time></trkpt><trkpt lat="43.300122183770526" lon="10.49536581117088"><ele>2.9999999999999996</ele><time>2026-04-20T16:47:36Z</time></trkpt><trkpt lat="43.30016255136294" lon="10.495460378376517"><ele>3.0</ele><time>2026-04-20T16:47:41Z</time></trkpt><trkpt lat="43.30017257131234" lon="10.495549610623742"><ele>3.0</ele><time>2026-04-20T16:47:44Z</time></trkpt><trkpt lat="43.30021729632905" lon="10.495625736031114"><ele>3.0</ele><time>2026-04-20T16:47:48Z</time></trkpt><trkpt lat="43.30025717410415" lon="10.49569349052076"><ele>3.0</ele><time>2026-04-20T16:47:52Z</time></trkpt><trkpt lat="43.30030505392541" lon="10.49577763698"><ele>2.9999999999999996</ele><time>2026-04-20T16:47:57Z</time></trkpt><trkpt lat="43.30033630252963" lon="10.495854491496607"><ele>3.0</ele><time>2026-04-20T16:48:01Z</time></trkpt><trkpt lat="43.30037789125526" lon="10.495921429968867"><ele>2.9999999999999996</ele><time>2026-04-20T16:48:05Z</time></trkpt><trkpt lat="43.30043663777055" lon="10.495990317093849"><ele>3.0</ele><time>2026-04-20T16:48:10Z</time></trkpt><trkpt lat="43.300475708192664" lon="10.496080083584978"><ele>3.0</ele><time>2026-04-20T16:48:15Z</time></trkpt><trkpt lat="43.30050926901755" lon="10.496154453514757"><ele>3.0</ele><time>2026-04-20T16:48:22Z</time></trkpt><trkpt lat="43.300547737780605" lon="10.496231245741736"><ele>3.0</ele><time>2026-04-20T16:48:27Z</time></trkpt><trkpt lat="43.30058895997285" lon="10.49630951397417"><ele>2.9999999999999996</ele><time>2026-04-20T16:48:33Z</time></trkpt><trkpt lat="43.30061938991697" lon="10.496396027899655"><ele>3.0</ele><time>2026-04-20T16:48:38Z</time></trkpt><trkpt lat="43.30066140288581" lon="10.4964674562851"><ele>2.9999999999999996</ele><time>2026-04-20T16:48:42Z</time></trkpt><trkpt lat="43.30069122914383" lon="10.496545764783857"><ele>3.0</ele><time>2026-04-20T16:48:46Z</time></trkpt><trkpt lat="43.30068146142193" lon="10.496653883074579"><ele>3.0</ele><time>2026-04-20T16:48:50Z</time></trkpt><trkpt lat="43.300631450696336" lon="10.496716870021285"><ele>3.0</ele><time>2026-04-20T16:48:55Z</time></trkpt><trkpt lat="43.30070614088988" lon="10.496720274065664"><ele>3.0</ele><time>2026-04-20T16:49:06Z</time></trkpt><trkpt lat="43.300768217086556" lon="10.496742648423744"><ele>2.9999999999999996</ele><time>2026-04-20T16:49:10Z</time></trkpt><trkpt lat="43.300815828793596" lon="10.496806861089997"><ele>3.0</ele><time>2026-04-20T16:49:15Z</time></trkpt><trkpt lat="43.30085543268132" lon="10.49687412265644"><ele>2.9999999999999996</ele><time>2026-04-20T16:49:20Z</time></trkpt><trkpt lat="43.30088709202159" lon="10.496972023077078"><ele>3.0</ele><time>2026-04-20T16:49:25Z</time></trkpt><trkpt lat="43.300920886010914" lon="10.497050260369468"><ele>3.0</ele><time>2026-04-20T16:49:28Z</time></trkpt><trkpt lat="43.30095043790229" lon="10.497136627587036"><ele>3.0</ele><time>2026-04-20T16:49:32Z</time></trkpt><trkpt lat="43.30097759100317" lon="10.497232113296837"><ele>3.0</ele><time>2026-04-20T16:49:36Z</time></trkpt><trkpt lat="43.301020246872504" lon="10.497311276869235"><ele>2.9999999999999996</ele><time>2026-04-20T16:49:40Z</time></trkpt><trkpt lat="43.30107378566564" lon="10.497391920920494"><ele>3.0</ele><time>2026-04-20T16:49:44Z</time></trkpt><trkpt lat="43.30110993929101" lon="10.497463104026293"><ele>2.9999999999999996</ele><time>2026-04-20T16:49:48Z</time></trkpt><trkpt lat="43.30115680053919" lon="10.49755415054316"><ele>3.0</ele><time>2026-04-20T16:49:53Z</time></trkpt><trkpt lat="43.30119412657067" lon="10.497628240490359"><ele>3.0</ele><time>2026-04-20T16:49:57Z</time></trkpt><trkpt lat="43.301238078270835" lon="10.497712666787473"><ele>3.0</ele><time>2026-04-20T16:50:02Z</time></trkpt><trkpt lat="43.30127641324306" lon="10.497783754399729"><ele>3.0</ele><time>2026-04-20T16:50:06Z</time></trkpt><trkpt lat="43.30131253567839" lon="10.497859629324076"><ele>2.9999999999999996</ele><time>2026-04-20T16:50:10Z</time></trkpt><trkpt lat="43.30134969733873" lon="10.497954138865767"><ele>3.0</ele><time>2026-04-20T16:50:15Z</time></trkpt><trkpt lat="43.30138240330244" lon="10.498032534186493"><ele>3.1428571428571423</ele><time>2026-04-20T16:50:20Z</time></trkpt><trkpt lat="43.30142634289815" lon="10.498124579912956"><ele>3.2857142857142856</ele><time>2026-04-20T16:50:25Z</time></trkpt><trkpt lat="43.30146361292432" lon="10.498198228266824"><ele>3.4285714285714284</ele><time>2026-04-20T16:50:29Z</time></trkpt><trkpt lat="43.30150338865837" lon="10.498276342548502"><ele>3.571428571428571</ele><time>2026-04-20T16:50:33Z</time></trkpt><trkpt lat="43.30153994764132" lon="10.498359818076922"><ele>3.714285714285714</ele><time>2026-04-20T16:50:37Z</time></trkpt><trkpt lat="43.301574331867734" lon="10.498450590640047"><ele>3.8571428571428568</ele><time>2026-04-20T16:50:43Z</time></trkpt><trkpt lat="43.301621191427415" lon="10.498520226494355"><ele>4.0</ele><time>2026-04-20T16:50:47Z</time></trkpt><trkpt lat="43.30165058587067" lon="10.49860905589165"><ele>4.0</ele><time>2026-04-20T16:50:52Z</time></trkpt><trkpt lat="43.301705996262434" lon="10.498672502677893"><ele>3.9999999999999996</ele><time>2026-04-20T16:50:58Z</time></trkpt><trkpt lat="43.30174937989202" lon="10.498744782852297"><ele>4.0</ele><time>2026-04-20T16:51:04Z</time></trkpt><trkpt lat="43.301791880609194" lon="10.498844850119992"><ele>4.0</ele><time>2026-04-20T16:51:10Z</time></trkpt><trkpt lat="43.30182460017021" lon="10.49893054247561"><ele>3.9999999999999996</ele><time>2026-04-20T16:51:14Z</time></trkpt><trkpt lat="43.301856939936094" lon="10.499014052158456"><ele>4.0</ele><time>2026-04-20T16:51:18Z</time></trkpt><trkpt lat="43.30189238216271" lon="10.499104512959386"><ele>4.0</ele><time>2026-04-20T16:51:22Z</time></trkpt><trkpt lat="43.30193445010513" lon="10.499185602584793"><ele>4.0</ele><time>2026-04-20T16:51:26Z</time></trkpt><trkpt lat="43.30197189699402" lon="10.49927398786338"><ele>3.9999999999999996</ele><time>2026-04-20T16:51:30Z</time></trkpt><trkpt lat="43.302011555940865" lon="10.499345726472718"><ele>4.0</ele><time>2026-04-20T16:51:34Z</time></trkpt><trkpt lat="43.30204382570091" lon="10.499424637717695"><ele>4.0</ele><time>2026-04-20T16:51:38Z</time></trkpt><trkpt lat="43.30208735020863" lon="10.499501952182438"><ele>3.9999999999999996</ele><time>2026-04-20T16:51:42Z</time></trkpt><trkpt lat="43.30212273694767" lon="10.49957428545917"><ele>4.0</ele><time>2026-04-20T16:51:46Z</time></trkpt><trkpt lat="43.302165521992734" lon="10.499663449128938"><ele>4.0</ele><time>2026-04-20T16:51:50Z</time></trkpt><trkpt lat="43.30220334461012" lon="10.49973388359247"><ele>4.0</ele><time>2026-04-20T16:51:54Z</time></trkpt><trkpt lat="43.30223486171622" lon="10.499822781690034"><ele>3.9999999999999996</ele><time>2026-04-20T16:51:59Z</time></trkpt><trkpt lat="43.302273141599926" lon="10.499917942215282"><ele>4.0</ele><time>2026-04-20T16:52:04Z</time></trkpt><trkpt lat="43.30230965645725" lon="10.499989005747514"><ele>4.0</ele><time>2026-04-20T16:52:08Z</time></trkpt><trkpt lat="43.30234343226726" lon="10.500062272425925"><ele>3.9999999999999996</ele><time>2026-04-20T16:52:12Z</time></trkpt><trkpt lat="43.30238728899222" lon="10.500148274119361"><ele>4.0</ele><time>2026-04-20T16:52:17Z</time></trkpt><trkpt lat="43.30243741834784" lon="10.50020216263695"><ele>4.0</ele><time>2026-04-20T16:52:21Z</time></trkpt><trkpt lat="43.302480233517905" lon="10.500293863874544"><ele>4.0</ele><time>2026-04-20T16:52:27Z</time></trkpt><trkpt lat="43.30252352871544" lon="10.500365337894241"><ele>3.9999999999999996</ele><time>2026-04-20T16:52:31Z</time></trkpt><trkpt lat="43.3025668982073" lon="10.5004353545663"><ele>4.0</ele><time>2026-04-20T16:52:37Z</time></trkpt><trkpt lat="43.30261007300258" lon="10.500524702882524"><ele>4.0</ele><time>2026-04-20T16:52:43Z</time></trkpt><trkpt lat="43.30264823976428" lon="10.500621713336995"><ele>3.9999999999999996</ele><time>2026-04-20T16:52:46Z</time></trkpt><trkpt lat="43.30268068462417" lon="10.500711719430457"><ele>4.0</ele><time>2026-04-20T16:52:50Z</time></trkpt><trkpt lat="43.302719196575126" lon="10.500791626419012"><ele>4.0</ele><time>2026-04-20T16:52:54Z</time></trkpt><trkpt lat="43.30275260219171" lon="10.50087497838945"><ele>4.0</ele><time>2026-04-20T16:52:58Z</time></trkpt><trkpt lat="43.302795403009604" lon="10.500950041389414"><ele>3.9999999999999996</ele><time>2026-04-20T16:53:02Z</time></trkpt><trkpt lat="43.30282999698195" lon="10.501023197242777"><ele>4.0</ele><time>2026-04-20T16:53:06Z</time></trkpt><trkpt lat="43.30286948051" lon="10.501109889973455"><ele>4.0</ele><time>2026-04-20T16:53:11Z</time></trkpt><trkpt lat="43.30290999381135" lon="10.501182246824186"><ele>3.9999999999999996</ele><time>2026-04-20T16:53:16Z</time></trkpt><trkpt lat="43.30293668484887" lon="10.501261732601373"><ele>4.0</ele><time>2026-04-20T16:53:20Z</time></trkpt><trkpt lat="43.302976421725795" lon="10.501343063469628"><ele>4.0</ele><time>2026-04-20T16:53:24Z</time></trkpt><trkpt lat="43.303016401745" lon="10.501426189084748"><ele>4.0</ele><time>2026-04-20T16:53:28Z</time></trkpt><trkpt lat="43.30306106736258" lon="10.501506817394088"><ele>3.9999999999999996</ele><time>2026-04-20T16:53:32Z</time></trkpt><trkpt lat="43.303101693808635" lon="10.501580480835395"><ele>4.0</ele><time>2026-04-20T16:53:36Z</time></trkpt><trkpt lat="43.3031435518829" lon="10.501671099284579"><ele>4.0</ele><time>2026-04-20T16:53:41Z</time></trkpt><trkpt lat="43.30318032856548" lon="10.501750558165744"><ele>3.9999999999999996</ele><time>2026-04-20T16:53:45Z</time></trkpt><trkpt lat="43.30321908259493" lon="10.501843309550273"><ele>4.0</ele><time>2026-04-20T16:53:50Z</time></trkpt><trkpt lat="43.30325202462785" lon="10.501921691536385"><ele>4.0</ele><time>2026-04-20T16:53:55Z</time></trkpt><trkpt lat="43.30329124806958" lon="10.501993865089599"><ele>4.0</ele><time>2026-04-20T16:54:01Z</time></trkpt><trkpt lat="43.303329257528326" lon="10.502081392077413"><ele>3.9999999999999996</ele><time>2026-04-20T16:54:05Z</time></trkpt><trkpt lat="43.303363209636586" lon="10.502154929685126"><ele>4.0</ele><time>2026-04-20T16:54:08Z</time></trkpt><trkpt lat="43.303406923871655" lon="10.502231508848523"><ele>4.0</ele><time>2026-04-20T16:54:13Z</time></trkpt><trkpt lat="43.30344524314289" lon="10.502302843551428"><ele>3.9999999999999996</ele><time>2026-04-20T16:54:17Z</time></trkpt><trkpt lat="43.30349336774264" lon="10.502381669740934"><ele>4.0</ele><time>2026-04-20T16:54:23Z</time></trkpt><trkpt lat="43.30353387081417" lon="10.502451342684891"><ele>4.0</ele><time>2026-04-20T16:54:28Z</time></trkpt><trkpt lat="43.30357385531945" lon="10.502547834851114"><ele>3.833333333333333</ele><time>2026-04-20T16:54:34Z</time></trkpt><trkpt lat="43.30361765218674" lon="10.502650912410314"><ele>3.6666666666666665</ele><time>2026-04-20T16:54:37Z</time></trkpt><trkpt lat="43.30364626635869" lon="10.502734809853113"><ele>3.5</ele><time>2026-04-20T16:54:40Z</time></trkpt><trkpt lat="43.303679125083946" lon="10.5028183393189"><ele>3.333333333333333</ele><time>2026-04-20T16:54:44Z</time></trkpt><trkpt lat="43.30371840432301" lon="10.502903167603165"><ele>3.1666666666666665</ele><time>2026-04-20T16:54:48Z</time></trkpt><trkpt lat="43.3037620491149" lon="10.502979796303729"><ele>3.0</ele><time>2026-04-20T16:54:53Z</time></trkpt><trkpt lat="43.303803141358536" lon="10.50308171076037"><ele>2.8571428571428568</ele><time>2026-04-20T16:54:58Z</time></trkpt><trkpt lat="43.30384652562259" lon="10.503159288325854"><ele>2.7142857142857144</ele><time>2026-04-20T16:55:02Z</time></trkpt><trkpt lat="43.30388562865559" lon="10.503240474626963"><ele>2.571428571428571</ele><time>2026-04-20T16:55:06Z</time></trkpt><trkpt lat="43.3039231565048" lon="10.503328010098889"><ele>2.4285714285714284</ele><time>2026-04-20T16:55:11Z</time></trkpt><trkpt lat="43.30396827348443" lon="10.503423409368862"><ele>2.2857142857142856</ele><time>2026-04-20T16:55:16Z</time></trkpt><trkpt lat="43.304019461056" lon="10.503482368923128"><ele>2.142857142857143</ele><time>2026-04-20T16:55:21Z</time></trkpt><trkpt lat="43.30406544364434" lon="10.50355627261961"><ele>2.0</ele><time>2026-04-20T16:55:25Z</time></trkpt><trkpt lat="43.30410129690122" lon="10.503628503878312"><ele>2.2857142857142856</ele><time>2026-04-20T16:55:30Z</time></trkpt><trkpt lat="43.304129095136005" lon="10.503730290099154"><ele>2.571428571428571</ele><time>2026-04-20T16:55:34Z</time></trkpt><trkpt lat="43.30415958841405" lon="10.503817498564084"><ele>2.8571428571428568</ele><time>2026-04-20T16:55:39Z</time></trkpt><trkpt lat="43.304193213974855" lon="10.50389820158926"><ele>3.142857142857143</ele><time>2026-04-20T16:55:42Z</time></trkpt><trkpt lat="43.304229482793104" lon="10.503971819273978"><ele>3.428571428571428</ele><time>2026-04-20T16:55:45Z</time></trkpt><trkpt lat="43.30425633834437" lon="10.504055211754862"><ele>3.714285714285714</ele><time>2026-04-20T16:55:49Z</time></trkpt><trkpt lat="43.30429941304653" lon="10.504149525768979"><ele>4.0</ele><time>2026-04-20T16:55:54Z</time></trkpt><trkpt lat="43.30433650541263" lon="10.504226501314765"><ele>4.0</ele><time>2026-04-20T16:55:58Z</time></trkpt><trkpt lat="43.30436761589377" lon="10.504303316304801"><ele>3.9999999999999996</ele><time>2026-04-20T16:56:02Z</time></trkpt><trkpt lat="43.304403708923104" lon="10.504376284526355"><ele>4.0</ele><time>2026-04-20T16:56:06Z</time></trkpt><trkpt lat="43.30445601533246" lon="10.5044594348629"><ele>4.0</ele><time>2026-04-20T16:56:11Z</time></trkpt><trkpt lat="43.30450242411259" lon="10.504546545522352"><ele>3.9999999999999996</ele><time>2026-04-20T16:56:16Z</time></trkpt><trkpt lat="43.30454664969578" lon="10.504624970709108"><ele>4.0</ele><time>2026-04-20T16:56:20Z</time></trkpt><trkpt lat="43.30458135797649" lon="10.50470087683727"><ele>4.0</ele><time>2026-04-20T16:56:24Z</time></trkpt><trkpt lat="43.30461691893364" lon="10.504776974727815"><ele>4.0</ele><time>2026-04-20T16:56:28Z</time></trkpt><trkpt lat="43.304657823648334" lon="10.504852924346718"><ele>3.9999999999999996</ele><time>2026-04-20T16:56:32Z</time></trkpt><trkpt lat="43.30469443826852" lon="10.50493601803845"><ele>4.0</ele><time>2026-04-20T16:56:37Z</time></trkpt><trkpt lat="43.30473371180792" lon="10.505018513064583"><ele>4.0</ele><time>2026-04-20T16:56:42Z</time></trkpt><trkpt lat="43.30477455535875" lon="10.505109870868537"><ele>3.9999999999999996</ele><time>2026-04-20T16:56:47Z</time></trkpt><trkpt lat="43.304805408465135" lon="10.505193794088434"><ele>4.0</ele><time>2026-04-20T16:56:51Z</time></trkpt><trkpt lat="43.30483895429835" lon="10.505268998471886"><ele>4.0</ele><time>2026-04-20T16:56:54Z</time></trkpt><trkpt lat="43.30489142936809" lon="10.50535857711983"><ele>4.0</ele><time>2026-04-20T16:56:59Z</time></trkpt><trkpt lat="43.30492970757973" lon="10.505432889027436"><ele>3.9999999999999996</ele><time>2026-04-20T16:57:04Z</time></trkpt><trkpt lat="43.30497068073637" lon="10.505517049635676"><ele>4.0</ele><time>2026-04-20T16:57:09Z</time></trkpt><trkpt lat="43.3050002362559" lon="10.505594892213843"><ele>4.0</ele><time>2026-04-20T16:57:13Z</time></trkpt><trkpt lat="43.30504663853424" lon="10.50567912688772"><ele>3.9999999999999996</ele><time>2026-04-20T16:57:18Z</time></trkpt><trkpt lat="43.30509398784587" lon="10.505759602441133"><ele>4.0</ele><time>2026-04-20T16:57:23Z</time></trkpt><trkpt lat="43.305138424952446" lon="10.505837372071394"><ele>4.0</ele><time>2026-04-20T16:57:27Z</time></trkpt><trkpt lat="43.30518549254001" lon="10.505928746082521"><ele>4.0</ele><time>2026-04-20T16:57:32Z</time></trkpt><trkpt lat="43.305214388153566" lon="10.506018077388035"><ele>3.9999999999999996</ele><time>2026-04-20T16:57:37Z</time></trkpt><trkpt lat="43.30525305028386" lon="10.506103034434611"><ele>4.0</ele><time>2026-04-20T16:57:43Z</time></trkpt><trkpt lat="43.30528399322669" lon="10.506190995264985"><ele>4.0</ele><time>2026-04-20T16:57:47Z</time></trkpt><trkpt lat="43.305322953561515" lon="10.506269247462775"><ele>3.9999999999999996</ele><time>2026-04-20T16:57:51Z</time></trkpt><trkpt lat="43.305369378451395" lon="10.506343128066947"><ele>4.0</ele><time>2026-04-20T16:57:55Z</time></trkpt><trkpt lat="43.305400376469194" lon="10.506424871660926"><ele>4.0</ele><time>2026-04-20T16:57:59Z</time></trkpt><trkpt lat="43.305435655316124" lon="10.50650884401823"><ele>4.142857142857142</ele><time>2026-04-20T16:58:03Z</time></trkpt><trkpt lat="43.30547887425546" lon="10.506584473606589"><ele>4.285714285714286</ele><time>2026-04-20T16:58:07Z</time></trkpt><trkpt lat="43.30551697954797" lon="10.506659969238079"><ele>4.428571428571429</ele><time>2026-04-20T16:58:11Z</time></trkpt><trkpt lat="43.30555582058747" lon="10.506734972420327"><ele>4.571428571428571</ele><time>2026-04-20T16:58:15Z</time></trkpt><trkpt lat="43.305596291884896" lon="10.506818032570658"><ele>4.714285714285714</ele><time>2026-04-20T16:58:20Z</time></trkpt><trkpt lat="43.30563896515328" lon="10.506894986263395"><ele>4.857142857142857</ele><time>2026-04-20T16:58:24Z</time></trkpt><trkpt lat="43.30568991514481" lon="10.506972558882254"><ele>5.0</ele><time>2026-04-20T16:58:29Z</time></trkpt><trkpt lat="43.30572311854328" lon="10.507053275657452"><ele>5.285714285714286</ele><time>2026-04-20T16:58:33Z</time></trkpt><trkpt lat="43.30575072770093" lon="10.507141178614413"><ele>5.571428571428571</ele><time>2026-04-20T16:58:38Z</time></trkpt><trkpt lat="43.30578553476631" lon="10.507223709775047"><ele>5.857142857142858</ele><time>2026-04-20T16:58:43Z</time></trkpt><trkpt lat="43.30582054934972" lon="10.507304871951366"><ele>6.142857142857142</ele><time>2026-04-20T16:58:48Z</time></trkpt><trkpt lat="43.305854692705815" lon="10.507381778847634"><ele>6.428571428571429</ele><time>2026-04-20T16:58:52Z</time></trkpt><trkpt lat="43.30589577186393" lon="10.507469163923803"><ele>6.714285714285714</ele><time>2026-04-20T16:58:57Z</time></trkpt><trkpt lat="43.30593038478944" lon="10.507546025624064"><ele>7.0</ele><time>2026-04-20T16:59:01Z</time></trkpt><trkpt lat="43.30597261649865" lon="10.507611698141666"><ele>7.0</ele><time>2026-04-20T16:59:06Z</time></trkpt><trkpt lat="43.30600907748885" lon="10.507696568640506"><ele>7.0</ele><time>2026-04-20T16:59:11Z</time></trkpt><trkpt lat="43.30605714677994" lon="10.507761496572952"><ele>7.0</ele><time>2026-04-20T16:59:16Z</time></trkpt><trkpt lat="43.3060966864823" lon="10.50783365234915"><ele>7.0</ele><time>2026-04-20T16:59:20Z</time></trkpt><trkpt lat="43.30613366292955" lon="10.507908331464726"><ele>7.0</ele><time>2026-04-20T16:59:24Z</time></trkpt><trkpt lat="43.30617054580245" lon="10.507984026360138"><ele>7.0</ele><time>2026-04-20T16:59:28Z</time></trkpt><trkpt lat="43.30620905985693" lon="10.508075221960695"><ele>7.0</ele><time>2026-04-20T16:59:33Z</time></trkpt><trkpt lat="43.30624815742901" lon="10.508168646472898"><ele>7.0</ele><time>2026-04-20T16:59:38Z</time></trkpt><trkpt lat="43.30628143660673" lon="10.508246962631585"><ele>7.0</ele><time>2026-04-20T16:59:42Z</time></trkpt><trkpt lat="43.30632215502419" lon="10.508331581425129"><ele>7.0</ele><time>2026-04-20T16:59:46Z</time></trkpt><trkpt lat="43.30636241934489" lon="10.508407190816477"><ele>7.0</ele><time>2026-04-20T16:59:50Z</time></trkpt><trkpt lat="43.30640311904924" lon="10.508500788920209"><ele>7.0</ele><time>2026-04-20T16:59:55Z</time></trkpt><trkpt lat="43.3064409936016" lon="10.508574934524397"><ele>7.0</ele><time>2026-04-20T16:59:59Z</time></trkpt><trkpt lat="43.30648808448506" lon="10.50866342223833"><ele>7.0</ele><time>2026-04-20T17:00:04Z</time></trkpt><trkpt lat="43.30652660616509" lon="10.508750226957329"><ele>6.857142857142857</ele><time>2026-04-20T17:00:09Z</time></trkpt><trkpt lat="43.30657686496559" lon="10.508827149426551"><ele>6.714285714285714</ele><time>2026-04-20T17:00:14Z</time></trkpt><trkpt lat="43.306612115208225" lon="10.508906047146697"><ele>6.571428571428571</ele><time>2026-04-20T17:00:18Z</time></trkpt><trkpt lat="43.30664632975964" lon="10.508979320013438"><ele>6.428571428571429</ele><time>2026-04-20T17:00:22Z</time></trkpt><trkpt lat="43.3066869999528" lon="10.50905540022008"><ele>6.285714285714286</ele><time>2026-04-20T17:00:28Z</time></trkpt><trkpt lat="43.30673534325012" lon="10.509134890840821"><ele>6.142857142857142</ele><time>2026-04-20T17:00:33Z</time></trkpt><trkpt lat="43.30676365656619" lon="10.509217222408138"><ele>6.0</ele><time>2026-04-20T17:00:38Z</time></trkpt><trkpt lat="43.30680332232764" lon="10.509294449660299"><ele>6.0</ele><time>2026-04-20T17:00:43Z</time></trkpt><trkpt lat="43.306850238112105" lon="10.509379014851417"><ele>6.0</ele><time>2026-04-20T17:00:47Z</time></trkpt><trkpt lat="43.30688177252567" lon="10.509471671734945"><ele>6.0</ele><time>2026-04-20T17:00:51Z</time></trkpt><trkpt lat="43.30691125364451" lon="10.509561309097839"><ele>6.0</ele><time>2026-04-20T17:00:55Z</time></trkpt><trkpt lat="43.30695646110918" lon="10.509634007186422"><ele>6.0</ele><time>2026-04-20T17:00:59Z</time></trkpt><trkpt lat="43.306994313731764" lon="10.509714391653455"><ele>6.0</ele><time>2026-04-20T17:01:04Z</time></trkpt><trkpt lat="43.307044777681746" lon="10.509828087417553"><ele>6.142857142857142</ele><time>2026-04-20T17:01:10Z</time></trkpt><trkpt lat="43.307078828445746" lon="10.50991225378695"><ele>6.285714285714286</ele><time>2026-04-20T17:01:14Z</time></trkpt><trkpt lat="43.307124933325035" lon="10.509996092266853"><ele>6.428571428571429</ele><time>2026-04-20T17:01:19Z</time></trkpt><trkpt lat="43.307162381837976" lon="10.51006805645121"><ele>6.571428571428571</ele><time>2026-04-20T17:01:23Z</time></trkpt><trkpt lat="43.30718616785086" lon="10.510166358603868"><ele>6.714285714285714</ele><time>2026-04-20T17:01:29Z</time></trkpt><trkpt lat="43.30721950664886" lon="10.510246324538155"><ele>6.857142857142857</ele><time>2026-04-20T17:01:33Z</time></trkpt><trkpt lat="43.307263373758474" lon="10.510332530445119"><ele>7.0</ele><time>2026-04-20T17:01:37Z</time></trkpt><trkpt lat="43.30730124931315" lon="10.510406570670987"><ele>7.142857142857142</ele><time>2026-04-20T17:01:40Z</time></trkpt><trkpt lat="43.30734117522091" lon="10.5104855504823"><ele>7.285714285714286</ele><time>2026-04-20T17:01:44Z</time></trkpt><trkpt lat="43.3073868432583" lon="10.510554967791832"><ele>7.428571428571429</ele><time>2026-04-20T17:01:48Z</time></trkpt><trkpt lat="43.3074326949377" lon="10.51063739377143"><ele>7.571428571428571</ele><time>2026-04-20T17:01:53Z</time></trkpt><trkpt lat="43.30747102276714" lon="10.510711345576313"><ele>7.7142857142857135</ele><time>2026-04-20T17:01:57Z</time></trkpt><trkpt lat="43.307510759556166" lon="10.510787481650288"><ele>7.857142857142857</ele><time>2026-04-20T17:02:01Z</time></trkpt><trkpt lat="43.30755334292325" lon="10.510872340936503"><ele>8.0</ele><time>2026-04-20T17:02:06Z</time></trkpt><trkpt lat="43.307587154765045" lon="10.510947304989521"><ele>8.0</ele><time>2026-04-20T17:02:10Z</time></trkpt><trkpt lat="43.30762418138451" lon="10.51102534809946"><ele>7.999999999999999</ele><time>2026-04-20T17:02:14Z</time></trkpt><trkpt lat="43.307667260264154" lon="10.511103228706247"><ele>8.0</ele><time>2026-04-20T17:02:19Z</time></trkpt><trkpt lat="43.30769836851014" lon="10.511188299650076"><ele>8.0</ele><time>2026-04-20T17:02:23Z</time></trkpt><trkpt lat="43.30773478389467" lon="10.511271025152109"><ele>7.999999999999999</ele><time>2026-04-20T17:02:27Z</time></trkpt><trkpt lat="43.30777737363085" lon="10.511357923277451"><ele>8.0</ele><time>2026-04-20T17:02:32Z</time></trkpt><trkpt lat="43.307815822900764" lon="10.511430068706353"><ele>8.0</ele><time>2026-04-20T17:02:36Z</time></trkpt><trkpt lat="43.30785126750496" lon="10.511511068288183"><ele>7.857142857142857</ele><time>2026-04-20T17:02:40Z</time></trkpt><trkpt lat="43.30788718732951" lon="10.511597370748332"><ele>7.7142857142857135</ele><time>2026-04-20T17:02:45Z</time></trkpt><trkpt lat="43.30792322552183" lon="10.511675256958164"><ele>7.571428571428571</ele><time>2026-04-20T17:02:49Z</time></trkpt><trkpt lat="43.307955228512114" lon="10.511751559049369"><ele>7.428571428571429</ele><time>2026-04-20T17:02:53Z</time></trkpt><trkpt lat="43.307997147914456" lon="10.511840205519599"><ele>7.285714285714286</ele><time>2026-04-20T17:02:58Z</time></trkpt><trkpt lat="43.30804019834337" lon="10.511925836037559"><ele>7.142857142857142</ele><time>2026-04-20T17:03:03Z</time></trkpt><trkpt lat="43.30808375929466" lon="10.51198956547029"><ele>7.0</ele><time>2026-04-20T17:03:10Z</time></trkpt><trkpt lat="43.30810847347939" lon="10.512085892587315"><ele>7.0</ele><time>2026-04-20T17:03:15Z</time></trkpt><trkpt lat="43.30814584990727" lon="10.512159477951633"><ele>7.0</ele><time>2026-04-20T17:03:19Z</time></trkpt><trkpt lat="43.30819661236923" lon="10.51221243818663"><ele>7.0</ele><time>2026-04-20T17:03:23Z</time></trkpt><trkpt lat="43.30824206085022" lon="10.5123007998569"><ele>7.0</ele><time>2026-04-20T17:03:28Z</time></trkpt><trkpt lat="43.30827420917527" lon="10.512406053285316"><ele>7.0</ele><time>2026-04-20T17:03:32Z</time></trkpt><trkpt lat="43.30831537259257" lon="10.512477383108092"><ele>7.0</ele><time>2026-04-20T17:03:36Z</time></trkpt><trkpt lat="43.308359680520184" lon="10.5125541166564"><ele>7.0</ele><time>2026-04-20T17:03:41Z</time></trkpt><trkpt lat="43.30838911571885" lon="10.51263412069324"><ele>7.0</ele><time>2026-04-20T17:03:45Z</time></trkpt><trkpt lat="43.30843397199591" lon="10.51272673439633"><ele>7.0</ele><time>2026-04-20T17:03:49Z</time></trkpt><trkpt lat="43.30847762510321" lon="10.512812075821973"><ele>7.0</ele><time>2026-04-20T17:03:53Z</time></trkpt><trkpt lat="43.308515568030806" lon="10.512884949230665"><ele>7.0</ele><time>2026-04-20T17:03:57Z</time></trkpt><trkpt lat="43.30854750892429" lon="10.512967773396943"><ele>7.0</ele><time>2026-04-20T17:04:01Z</time></trkpt><trkpt lat="43.308584987021064" lon="10.51305054726565"><ele>7.0</ele><time>2026-04-20T17:04:06Z</time></trkpt><trkpt lat="43.30862915800037" lon="10.513136506320784"><ele>7.0</ele><time>2026-04-20T17:04:11Z</time></trkpt><trkpt lat="43.30866762295999" lon="10.513206545960667"><ele>7.142857142857142</ele><time>2026-04-20T17:04:15Z</time></trkpt><trkpt lat="43.30870715879128" lon="10.513281957955419"><ele>7.285714285714286</ele><time>2026-04-20T17:04:22Z</time></trkpt><trkpt lat="43.30875085660793" lon="10.513352314339311"><ele>7.428571428571429</ele><time>2026-04-20T17:04:28Z</time></trkpt><trkpt lat="43.308790219199814" lon="10.513439679109291"><ele>7.571428571428571</ele><time>2026-04-20T17:04:33Z</time></trkpt><trkpt lat="43.30882536272301" lon="10.513517157818708"><ele>7.7142857142857135</ele><time>2026-04-20T17:04:37Z</time></trkpt><trkpt lat="43.30885768198073" lon="10.51360252386095"><ele>7.857142857142857</ele><time>2026-04-20T17:04:42Z</time></trkpt><trkpt lat="43.30888341805089" lon="10.513693247340635"><ele>8.0</ele><time>2026-04-20T17:04:46Z</time></trkpt><trkpt lat="43.30891458425611" lon="10.513768554182992"><ele>8.0</ele><time>2026-04-20T17:04:52Z</time></trkpt><trkpt lat="43.308936596913455" lon="10.513863958743354"><ele>7.999999999999999</ele><time>2026-04-20T17:04:57Z</time></trkpt><trkpt lat="43.30896409519974" lon="10.51395093367696"><ele>8.0</ele><time>2026-04-20T17:05:01Z</time></trkpt><trkpt lat="43.30901117906408" lon="10.514019807402592"><ele>8.0</ele><time>2026-04-20T17:05:04Z</time></trkpt><trkpt lat="43.30907299282497" lon="10.514075890197343"><ele>7.999999999999999</ele><time>2026-04-20T17:05:09Z</time></trkpt><trkpt lat="43.30910518874586" lon="10.51416515687517"><ele>8.0</ele><time>2026-04-20T17:05:14Z</time></trkpt><trkpt lat="43.30913264710527" lon="10.514251588470678"><ele>8.0</ele><time>2026-04-20T17:05:18Z</time></trkpt><trkpt lat="43.30916412789658" lon="10.514348364797492"><ele>9.0</ele><time>2026-04-20T17:05:22Z</time></trkpt><trkpt lat="43.30933184845877" lon="10.515058212267919"><ele>9.000000000000002</ele><time>2026-04-20T17:05:56.05Z</time></trkpt><trkpt lat="43.30939097703115" lon="10.515027238632964"><ele>9.0</ele><time>2026-04-20T17:06:01Z</time></trkpt><trkpt lat="43.309438309120054" lon="10.515084321699518"><ele>9.0</ele><time>2026-04-20T17:06:10Z</time></trkpt><trkpt lat="43.30947383860721" lon="10.51516013697324"><ele>9.0</ele><time>2026-04-20T17:06:15Z</time></trkpt><trkpt lat="43.30949356461506" lon="10.515271614115079"><ele>9.0</ele><time>2026-04-20T17:06:19Z</time></trkpt><trkpt lat="43.309496713653026" lon="10.5153659243455"><ele>9.000000000000002</ele><time>2026-04-20T17:06:22Z</time></trkpt><trkpt lat="43.30945560027926" lon="10.515450511081601"><ele>9.0</ele><time>2026-04-20T17:06:25Z</time></trkpt><trkpt lat="43.30942094423414" lon="10.51552706367754"><ele>9.000000000000002</ele><time>2026-04-20T17:06:28Z</time></trkpt><trkpt lat="43.30940165087935" lon="10.515616864069997"><ele>9.0</ele><time>2026-04-20T17:06:32Z</time></trkpt><trkpt lat="43.30935243545155" lon="10.51569387052671"><ele>9.0</ele><time>2026-04-20T17:06:36Z</time></trkpt><trkpt lat="43.309291747447695" lon="10.515755177979903"><ele>9.0</ele><time>2026-04-20T17:06:41Z</time></trkpt><trkpt lat="43.309233419463865" lon="10.515824106272094"><ele>9.0</ele><time>2026-04-20T17:06:47Z</time></trkpt><trkpt lat="43.309177377545595" lon="10.515872779198773"><ele>9.000000000000002</ele><time>2026-04-20T17:06:51Z</time></trkpt><trkpt lat="43.30912220821306" lon="10.515915641527654"><ele>9.0</ele><time>2026-04-20T17:06:55Z</time></trkpt><trkpt lat="43.30907729769956" lon="10.5159769087707"><ele>9.0</ele><time>2026-04-20T17:06:59Z</time></trkpt><trkpt lat="43.309042275255415" lon="10.516052621065702"><ele>9.0</ele><time>2026-04-20T17:07:04Z</time></trkpt><trkpt lat="43.30897424235755" lon="10.516104849164082"><ele>9.0</ele><time>2026-04-20T17:07:10Z</time></trkpt><trkpt lat="43.3088981502663" lon="10.516109511782949"><ele>9.0</ele><time>2026-04-20T17:07:15Z</time></trkpt><trkpt lat="43.30883417110962" lon="10.516081632186086"><ele>9.0</ele><time>2026-04-20T17:07:20Z</time></trkpt><trkpt lat="43.308823930726454" lon="10.516174862191306"><ele>9.0</ele><time>2026-04-20T17:07:26Z</time></trkpt><trkpt lat="43.308861854886864" lon="10.516297093657085"><ele>9.428571428571429</ele><time>2026-04-20T17:07:30Z</time></trkpt><trkpt lat="43.30889708584628" lon="10.516372866000284"><ele>9.857142857142858</ele><time>2026-04-20T17:07:36Z</time></trkpt><trkpt lat="43.30888772624105" lon="10.516466945340575"><ele>10.285714285714285</ele><time>2026-04-20T17:07:43Z</time></trkpt><trkpt lat="43.30892498438618" lon="10.5165367764736"><ele>10.714285714285715</ele><time>2026-04-20T17:07:50Z</time></trkpt><trkpt lat="43.30895450930805" lon="10.516620643525988"><ele>11.142857142857142</ele><time>2026-04-20T17:07:54Z</time></trkpt><trkpt lat="43.30896374047556" lon="10.516717745612958"><ele>11.571428571428571</ele><time>2026-04-20T17:07:59Z</time></trkpt><trkpt lat="43.308993161595325" lon="10.516802462466547"><ele>12.0</ele><time>2026-04-20T17:08:03Z</time></trkpt><trkpt lat="43.309021875288856" lon="10.516892795240395"><ele>11.999999999999998</ele><time>2026-04-20T17:08:07Z</time></trkpt><trkpt lat="43.30905332290428" lon="10.516987795217775"><ele>12.0</ele><time>2026-04-20T17:08:13Z</time></trkpt><trkpt lat="43.30907262185175" lon="10.517072906986662"><ele>12.0</ele><time>2026-04-20T17:08:18Z</time></trkpt><trkpt lat="43.309145596781974" lon="10.517081331918627"><ele>12.0</ele><time>2026-04-20T17:08:26Z</time></trkpt><trkpt lat="43.3092024310844" lon="10.517135485482537"><ele>12.0</ele><time>2026-04-20T17:08:30Z</time></trkpt><trkpt lat="43.30924870993255" lon="10.517196768119339"><ele>11.999999999999998</ele><time>2026-04-20T17:08:35Z</time></trkpt><trkpt lat="43.309303405399895" lon="10.517241866636036"><ele>12.0</ele><time>2026-04-20T17:08:39Z</time></trkpt><trkpt lat="43.30930271211213" lon="10.517342578748227"><ele>11.999999999999998</ele><time>2026-04-20T17:08:42Z</time></trkpt><trkpt lat="43.30928220114298" lon="10.517437781264757"><ele>12.0</ele><time>2026-04-20T17:08:44Z</time></trkpt><trkpt lat="43.30927318198949" lon="10.517527050427855"><ele>12.0</ele><time>2026-04-20T17:08:47Z</time></trkpt><trkpt lat="43.30926004223317" lon="10.51761855252983"><ele>12.0</ele><time>2026-04-20T17:08:50Z</time></trkpt><trkpt lat="43.30920654729368" lon="10.517691870842091"><ele>12.0</ele><time>2026-04-20T17:08:53Z</time></trkpt><trkpt lat="43.30915941998844" lon="10.517749433308369"><ele>11.999999999999998</ele><time>2026-04-20T17:08:56Z</time></trkpt><trkpt lat="43.309121433386" lon="10.517824466484905"><ele>12.0</ele><time>2026-04-20T17:09:05Z</time></trkpt><trkpt lat="43.30909525575946" lon="10.51791689059181"><ele>12.0</ele><time>2026-04-20T17:09:12Z</time></trkpt><trkpt lat="43.30911042780646" lon="10.518017116448625"><ele>12.0</ele><time>2026-04-20T17:09:16Z</time></trkpt><trkpt lat="43.30912666795994" lon="10.518120853476557"><ele>12.0</ele><time>2026-04-20T17:09:20Z</time></trkpt><trkpt lat="43.30914554655352" lon="10.51823573239631"><ele>12.0</ele><time>2026-04-20T17:09:24Z</time></trkpt><trkpt lat="43.309183402392684" lon="10.518321968940262"><ele>12.0</ele><time>2026-04-20T17:09:26Z</time></trkpt><trkpt lat="43.30921191054668" lon="10.518404365140404"><ele>12.0</ele><time>2026-04-20T17:09:29Z</time></trkpt><trkpt lat="43.3092171426559" lon="10.518506070046337"><ele>11.999999999999998</ele><time>2026-04-20T17:09:35Z</time></trkpt><trkpt lat="43.309245013428175" lon="10.51860049194555"><ele>12.0</ele><time>2026-04-20T17:09:39Z</time></trkpt><trkpt lat="43.30927361693133" lon="10.518693368998326"><ele>12.0</ele><time>2026-04-20T17:09:43Z</time></trkpt><trkpt lat="43.309300033677765" lon="10.518782042296126"><ele>12.0</ele><time>2026-04-20T17:09:47Z</time></trkpt><trkpt lat="43.30932833764846" lon="10.51886246733142"><ele>12.0</ele><time>2026-04-20T17:09:51Z</time></trkpt><trkpt lat="43.30935135257642" lon="10.518952296787967"><ele>11.999999999999998</ele><time>2026-04-20T17:09:56Z</time></trkpt><trkpt lat="43.30938557466256" lon="10.51905396270038"><ele>12.0</ele><time>2026-04-20T17:10:00Z</time></trkpt><trkpt lat="43.30939510932765" lon="10.519148556913139"><ele>11.999999999999998</ele><time>2026-04-20T17:10:06Z</time></trkpt><trkpt lat="43.309411853708845" lon="10.519246229993119"><ele>12.0</ele><time>2026-04-20T17:10:13Z</time></trkpt><trkpt lat="43.30944067757991" lon="10.519346741034283"><ele>12.0</ele><time>2026-04-20T17:10:17Z</time></trkpt><trkpt lat="43.30947322537719" lon="10.519427915828357"><ele>12.0</ele><time>2026-04-20T17:10:20Z</time></trkpt><trkpt lat="43.309501445406454" lon="10.519518544712616"><ele>12.0</ele><time>2026-04-20T17:10:24Z</time></trkpt><trkpt lat="43.30952642751442" lon="10.519601984129114"><ele>11.999999999999998</ele><time>2026-04-20T17:10:28Z</time></trkpt><trkpt lat="43.309554245061406" lon="10.519685691162207"><ele>12.0</ele><time>2026-04-20T17:10:32Z</time></trkpt><trkpt lat="43.30959418316529" lon="10.519780504428288"><ele>11.999999999999998</ele><time>2026-04-20T17:10:37Z</time></trkpt><trkpt lat="43.30960801131071" lon="10.519870205012749"><ele>12.0</ele><time>2026-04-20T17:10:47Z</time></trkpt><trkpt lat="43.3096322983102" lon="10.519982706923434"><ele>12.0</ele><time>2026-04-20T17:10:52Z</time></trkpt><trkpt lat="43.3096513187896" lon="10.52006977559052"><ele>12.0</ele><time>2026-04-20T17:10:55Z</time></trkpt><trkpt lat="43.309684894195584" lon="10.520170117459843"><ele>12.0</ele><time>2026-04-20T17:10:58Z</time></trkpt><trkpt lat="43.309713057192454" lon="10.520253099322932"><ele>11.999999999999998</ele><time>2026-04-20T17:11:02Z</time></trkpt><trkpt lat="43.30973502523638" lon="10.520344053799594"><ele>12.0</ele><time>2026-04-20T17:11:07Z</time></trkpt><trkpt lat="43.30976022353232" lon="10.52043492157304"><ele>12.142857142857142</ele><time>2026-04-20T17:11:11Z</time></trkpt><trkpt lat="43.30980000018626" lon="10.520505198406884"><ele>12.285714285714285</ele><time>2026-04-20T17:11:15Z</time></trkpt><trkpt lat="43.30981940973552" lon="10.520598125530576"><ele>12.428571428571427</ele><time>2026-04-20T17:11:20Z</time></trkpt><trkpt lat="43.30984352505986" lon="10.520686343359065"><ele>12.571428571428571</ele><time>2026-04-20T17:11:24Z</time></trkpt><trkpt lat="43.30987633411774" lon="10.520782269013875"><ele>12.714285714285715</ele><time>2026-04-20T17:11:28Z</time></trkpt><trkpt lat="43.30990896808113" lon="10.520878483268556"><ele>12.857142857142856</ele><time>2026-04-20T17:11:32Z</time></trkpt><trkpt lat="43.3099358708018" lon="10.520968911165061"><ele>13.0</ele><time>2026-04-20T17:11:36Z</time></trkpt><trkpt lat="43.3099663380906" lon="10.521067505214031"><ele>13.0</ele><time>2026-04-20T17:11:40Z</time></trkpt><trkpt lat="43.30998850607417" lon="10.521158345642133"><ele>13.0</ele><time>2026-04-20T17:11:44Z</time></trkpt><trkpt lat="43.310007988098555" lon="10.521247393622051"><ele>13.0</ele><time>2026-04-20T17:11:49Z</time></trkpt><trkpt lat="43.3100258710311" lon="10.521336482494629"><ele>13.0</ele><time>2026-04-20T17:11:54Z</time></trkpt><trkpt lat="43.31004971476306" lon="10.521423786747398"><ele>13.0</ele><time>2026-04-20T17:11:58Z</time></trkpt><trkpt lat="43.31007282014808" lon="10.521511200867971"><ele>13.0</ele><time>2026-04-20T17:12:02Z</time></trkpt><trkpt lat="43.3101072292093" lon="10.521590597642922"><ele>13.0</ele><time>2026-04-20T17:12:06Z</time></trkpt><trkpt lat="43.31013800886904" lon="10.521670895310253"><ele>13.0</ele><time>2026-04-20T17:12:11Z</time></trkpt><trkpt lat="43.31015840867598" lon="10.521773784449778"><ele>13.0</ele><time>2026-04-20T17:12:16Z</time></trkpt><trkpt lat="43.310182728921255" lon="10.521867186691988"><ele>13.0</ele><time>2026-04-20T17:12:19Z</time></trkpt><trkpt lat="43.310225288048095" lon="10.521936437129403"><ele>13.0</ele><time>2026-04-20T17:12:22Z</time></trkpt><trkpt lat="43.31024967175972" lon="10.522031253306974"><ele>13.0</ele><time>2026-04-20T17:12:26Z</time></trkpt><trkpt lat="43.31026791452399" lon="10.52212283135221"><ele>13.0</ele><time>2026-04-20T17:12:30Z</time></trkpt><trkpt lat="43.310292218715176" lon="10.522212913194018"><ele>13.0</ele><time>2026-04-20T17:12:35Z</time></trkpt><trkpt lat="43.310355541456055" lon="10.522272541082826"><ele>12.857142857142856</ele><time>2026-04-20T17:12:40Z</time></trkpt><trkpt lat="43.31042966162353" lon="10.52226960763572"><ele>12.714285714285715</ele><time>2026-04-20T17:12:45Z</time></trkpt><trkpt lat="43.310503563277116" lon="10.522243433908507"><ele>12.571428571428571</ele><time>2026-04-20T17:12:50Z</time></trkpt><trkpt lat="43.310578123506154" lon="10.522236788954025"><ele>12.428571428571427</ele><time>2026-04-20T17:12:55Z</time></trkpt><trkpt lat="43.31063920141567" lon="10.52220667799847"><ele>12.285714285714285</ele><time>2026-04-20T17:13:00Z</time></trkpt><trkpt lat="43.31069791815748" lon="10.522166717344886"><ele>12.142857142857142</ele><time>2026-04-20T17:13:05Z</time></trkpt><trkpt lat="43.310748285846735" lon="10.52211307646754"><ele>12.0</ele><time>2026-04-20T17:13:11Z</time></trkpt><trkpt lat="43.31077552311813" lon="10.522192224457672"><ele>12.57142857142857</ele><time>2026-04-20T17:13:15Z</time></trkpt><trkpt lat="43.31082512521146" lon="10.522246409721374"><ele>13.142857142857142</ele><time>2026-04-20T17:13:18Z</time></trkpt><trkpt lat="43.31087529962197" lon="10.522333432922524"><ele>13.714285714285714</ele><time>2026-04-20T17:13:23Z</time></trkpt><trkpt lat="43.31092609523313" lon="10.522420070371608"><ele>14.285714285714285</ele><time>2026-04-20T17:13:27Z</time></trkpt><trkpt lat="43.310977599410535" lon="10.522502832293995"><ele>14.857142857142856</ele><time>2026-04-20T17:13:32Z</time></trkpt><trkpt lat="43.31101919204436" lon="10.522583903557674"><ele>15.428571428571427</ele><time>2026-04-20T17:13:36Z</time></trkpt><trkpt lat="43.31104226516859" lon="10.522669899663091"><ele>16.0</ele><time>2026-04-20T17:13:40Z</time></trkpt><trkpt lat="43.31105567649865" lon="10.522769694994052"><ele>16.0</ele><time>2026-04-20T17:13:45Z</time></trkpt><trkpt lat="43.31105809893715" lon="10.522870901050698"><ele>15.999999999999998</ele><time>2026-04-20T17:13:50Z</time></trkpt><trkpt lat="43.31107947638119" lon="10.522957552939841"><ele>16.0</ele><time>2026-04-20T17:13:54Z</time></trkpt><trkpt lat="43.31111769838063" lon="10.523029268352634"><ele>16.0</ele><time>2026-04-20T17:13:58Z</time></trkpt><trkpt lat="43.311160934042356" lon="10.523109626478961"><ele>15.999999999999998</ele><time>2026-04-20T17:14:04Z</time></trkpt><trkpt lat="43.31122023437433" lon="10.523139054700172"><ele>16.0</ele><time>2026-04-20T17:14:09Z</time></trkpt><trkpt lat="43.31124378576276" lon="10.523227874081366"><ele>16.0</ele><time>2026-04-20T17:14:17Z</time></trkpt><trkpt lat="43.31124765842628" lon="10.523314263879724"><ele>15.0</ele><time>2026-04-20T17:14:21Z</time></trkpt><trkpt lat="43.31125761443634" lon="10.523210883838795"><ele>15.0</ele><time>2026-04-20T17:14:47Z</time></trkpt><trkpt lat="43.311350322755466" lon="10.52321674788676"><ele>15.0</ele><time>2026-04-20T17:15:13Z</time></trkpt><trkpt lat="43.311347766778844" lon="10.523118621481244"><ele>15.0</ele><time>2026-04-20T17:15:18Z</time></trkpt><trkpt lat="43.311385263724354" lon="10.52319743620029"><ele>15.0</ele><time>2026-04-20T17:15:36Z</time></trkpt><trkpt lat="43.31132847089436" lon="10.523070908637045"><ele>15.0</ele><time>2026-04-20T17:16:04.682Z</time></trkpt></trkseg></trk></gpx>